Observation data for Throckmorton on 07/11/2018      Previous  Date       Current Mesonet Observations  Soil Data  Daily Summary Page  Observations in Plain Language
KTH1 110501Z 14005KT 25/21 A3008 RMK A01 T02480210  RH  079%=      5-min Rain = 0
KTH1 110502Z 14005KT 25/21 A3008 RMK A01 T02480210  RH  079%=      5-min Rain = 0
KTH1 110503Z 14005KT 25/21 A3008 RMK A01 T02480209  RH  079%=      5-min Rain = 0
KTH1 110504Z 14005KT 25/21 A3008 RMK A01 T02480210  RH  079%=      5-min Rain = 0
KTH1 110505Z 14005KT 25/21 A3008 RMK A01 T02480209  RH  079%=      5-min Rain = 0
KTH1 110506Z 14005KT 25/21 A3008 RMK A01 T02480209  RH  079%=      5-min Rain = 0
KTH1 110507Z 14005KT 25/21 A3008 RMK A01 T02480210  RH  079%=      5-min Rain = 0
KTH1 110508Z 14005KT 25/21 A3007 RMK A01 T02480209  RH  079%=      5-min Rain = 0
KTH1 110509Z 14005KT 25/21 A3007 RMK A01 T02480209  RH  079%=      5-min Rain = 0
KTH1 110510Z 14005KT 25/21 A3007 RMK A01 T02470209  RH  079%=      5-min Rain = 0
KTH1 110511Z 14005KT 25/21 A3007 RMK A01 T02470209  RH  079%=      5-min Rain = 0
KTH1 110512Z 13005KT 25/21 A3007 RMK A01 T02470209  RH  079%=      5-min Rain = 0
KTH1 110513Z 14004KT 25/21 A3007 RMK A01 T02470209  RH  079%=      5-min Rain = 0
KTH1 110514Z 14005KT 25/21 A3007 RMK A01 T02470209  RH  079%=      5-min Rain = 0
KTH1 110515Z 14004KT 25/21 A3007 RMK A01 T02470209  RH  079%=      5-min Rain = 0
KTH1 110516Z 14004KT 25/21 A3007 RMK A01 T02460209  RH  079%=      5-min Rain = 0
KTH1 110517Z 14004KT 25/21 A3007 RMK A01 T02460208  RH  080%=      5-min Rain = 0
KTH1 110518Z 14004KT 25/21 A3007 RMK A01 T02460208  RH  080%=      5-min Rain = 0
KTH1 110519Z 14003KT 25/21 A3007 RMK A01 T02450208  RH  080%=      5-min Rain = 0
KTH1 110520Z 14004KT 25/21 A3007 RMK A01 T02450208  RH  080%=      5-min Rain = 0
KTH1 110521Z 15004KT 25/21 A3007 RMK A01 T02450208  RH  080%=      5-min Rain = 0
KTH1 110522Z 14004KT 25/21 A3007 RMK A01 T02450208  RH  080%=      5-min Rain = 0
KTH1 110523Z 14004KT 24/21 A3007 RMK A01 T02440208  RH  080%=      5-min Rain = 0
KTH1 110524Z 14004KT 24/21 A3007 RMK A01 T02440208  RH  080%=      5-min Rain = 0
KTH1 110525Z 14004KT 24/21 A3007 RMK A01 T02440208  RH  080%=      5-min Rain = 0
KTH1 110526Z 13004KT 24/21 A3007 RMK A01 T02440208  RH  080%=      5-min Rain = 0
KTH1 110527Z 14004KT 24/21 A3007 RMK A01 T02440208  RH  080%=      5-min Rain = 0
KTH1 110528Z 13004KT 24/21 A3007 RMK A01 T02430207  RH  080%=      5-min Rain = 0
KTH1 110529Z 13004KT 24/21 A3007 RMK A01 T02430207  RH  080%=      5-min Rain = 0
KTH1 110530Z 13003KT 24/21 A3007 RMK A01 T02430207  RH  080%=      5-min Rain = 0
KTH1 110531Z 14003KT 24/21 A3007 RMK A01 T02430207  RH  081%=      5-min Rain = 0
KTH1 110532Z 13003KT 24/21 A3007 RMK A01 T02430208  RH  081%=      5-min Rain = 0
KTH1 110533Z 13003KT 24/21 A3007 RMK A01 T02420207  RH  081%=      5-min Rain = 0
KTH1 110534Z 13003KT 24/21 A3007 RMK A01 T02420207  RH  081%=      5-min Rain = 0
KTH1 110535Z 13004KT 24/21 A3007 RMK A01 T02420207  RH  081%=      5-min Rain = 0
KTH1 110536Z 13003KT 24/21 A3007 RMK A01 T02420207  RH  081%=      5-min Rain = 0
KTH1 110537Z 12003KT 24/21 A3007 RMK A01 T02420207  RH  081%=      5-min Rain = 0
KTH1 110538Z 12003KT 24/21 A3007 RMK A01 T02420207  RH  081%=      5-min Rain = 0
KTH1 110539Z 13003KT 24/21 A3007 RMK A01 T02420207  RH  081%=      5-min Rain = 0
KTH1 110540Z 13003KT 24/21 A3007 RMK A01 T02420207  RH  081%=      5-min Rain = 0
KTH1 110541Z 13003KT 24/21 A3007 RMK A01 T02420207  RH  081%=      5-min Rain = 0
KTH1 110542Z 13003KT 24/21 A3007 RMK A01 T02410207  RH  081%=      5-min Rain = 0
KTH1 110543Z 13003KT 24/21 A3007 RMK A01 T02410207  RH  081%=      5-min Rain = 0
KTH1 110544Z 14003KT 24/21 A3007 RMK A01 T02410206  RH  081%=      5-min Rain = 0
KTH1 110545Z 14003KT 24/21 A3007 RMK A01 T02400206  RH  081%=      5-min Rain = 0
KTH1 110546Z 14003KT 24/21 A3007 RMK A01 T02400206  RH  081%=      5-min Rain = 0
KTH1 110547Z 13003KT 24/21 A3007 RMK A01 T02390206  RH  081%=      5-min Rain = 0
KTH1 110548Z 14004KT 24/21 A3007 RMK A01 T02390206  RH  082%=      5-min Rain = 0
KTH1 110549Z 14004KT 24/21 A3007 RMK A01 T02390206  RH  082%=      5-min Rain = 0
KTH1 110550Z 14003KT 24/21 A3007 RMK A01 T02380205  RH  082%=      5-min Rain = 0
KTH1 110551Z 14004KT 24/21 A3007 RMK A01 T02390205  RH  082%=      5-min Rain = 0
KTH1 110552Z 15004KT 24/21 A3007 RMK A01 T02380205  RH  082%=      5-min Rain = 0
KTH1 110553Z 15004KT 24/21 A3007 RMK A01 T02380205  RH  082%=      5-min Rain = 0
KTH1 110554Z 16004KT 24/21 A3006 RMK A01 T02380205  RH  082%=      5-min Rain = 0
KTH1 110555Z 16004KT 24/21 A3006 RMK A01 T02380205  RH  082%=      5-min Rain = 0
KTH1 110556Z 16004KT 24/21 A3006 RMK A01 T02370205  RH  082%=      5-min Rain = 0
KTH1 110557Z 16003KT 24/21 A3007 RMK A01 T02370205  RH  082%=      5-min Rain = 0
KTH1 110558Z 16004KT 24/21 A3007 RMK A01 T02370205  RH  082%=      5-min Rain = 0
KTH1 110559Z 15004KT 24/21 A3007 RMK A01 T02370205  RH  082%=      5-min Rain = 0
KTH1 110600Z 16004KT 24/21 A3007 RMK A01 T02370205  RH  082%=      5-min Rain = 0
KTH1 110601Z 16004KT 24/21 A3006 RMK A01 T02370205  RH  082%=      5-min Rain = 0
KTH1 110602Z 16004KT 24/21 A3006 RMK A01 T02370205  RH  082%=      5-min Rain = 0
KTH1 110603Z 16004KT 24/21 A3006 RMK A01 T02370205  RH  082%=      5-min Rain = 0
KTH1 110604Z 16004KT 24/21 A3006 RMK A01 T02370205  RH  082%=      5-min Rain = 0
KTH1 110605Z 16004KT 24/21 A3006 RMK A01 T02370205  RH  082%=      5-min Rain = 0
KTH1 110606Z 16004KT 24/21 A3006 RMK A01 T02370205  RH  082%=      5-min Rain = 0
KTH1 110607Z 16004KT 24/21 A3006 RMK A01 T02370205  RH  082%=      5-min Rain = 0
KTH1 110608Z 15004KT 24/21 A3006 RMK A01 T02370205  RH  082%=      5-min Rain = 0
KTH1 110609Z 15004KT 24/21 A3006 RMK A01 T02370205  RH  082%=      5-min Rain = 0
KTH1 110610Z 16004KT 24/21 A3006 RMK A01 T02370205  RH  082%=      5-min Rain = 0
KTH1 110611Z 15004KT 24/21 A3006 RMK A01 T02370205  RH  082%=      5-min Rain = 0
KTH1 110612Z 15004KT 24/21 A3006 RMK A01 T02370205  RH  082%=      5-min Rain = 0
KTH1 110613Z 15004KT 24/21 A3006 RMK A01 T02360205  RH  082%=      5-min Rain = 0
KTH1 110614Z 15004KT 24/21 A3006 RMK A01 T02360205  RH  082%=      5-min Rain = 0
KTH1 110615Z 15004KT 24/21 A3006 RMK A01 T02360205  RH  083%=      5-min Rain = 0
KTH1 110616Z 15004KT 24/21 A3006 RMK A01 T02360205  RH  083%=      5-min Rain = 0
KTH1 110617Z 15003KT 24/20 A3006 RMK A01 T02350204  RH  083%=      5-min Rain = 0
KTH1 110618Z 15004KT 24/20 A3006 RMK A01 T02350204  RH  083%=      5-min Rain = 0
KTH1 110619Z 15003KT 24/20 A3006 RMK A01 T02350204  RH  083%=      5-min Rain = 0
KTH1 110620Z 14004KT 24/20 A3006 RMK A01 T02350204  RH  083%=      5-min Rain = 0
KTH1 110621Z 14003KT 24/20 A3006 RMK A01 T02350204  RH  083%=      5-min Rain = 0
KTH1 110622Z 14003KT 24/20 A3006 RMK A01 T02350204  RH  083%=      5-min Rain = 0
KTH1 110623Z 14003KT 24/20 A3006 RMK A01 T02350204  RH  083%=      5-min Rain = 0
KTH1 110624Z 14004KT 24/20 A3006 RMK A01 T02350204  RH  083%=      5-min Rain = 0
KTH1 110625Z 14003KT 24/20 A3006 RMK A01 T02350204  RH  083%=      5-min Rain = 0
KTH1 110626Z 13004KT 24/20 A3006 RMK A01 T02350204  RH  083%=      5-min Rain = 0
KTH1 110627Z 14004KT 24/20 A3006 RMK A01 T02350204  RH  083%=      5-min Rain = 0
KTH1 110628Z 14003KT 24/20 A3006 RMK A01 T02350204  RH  083%=      5-min Rain = 0
KTH1 110629Z 14004KT 24/20 A3006 RMK A01 T02350204  RH  083%=      5-min Rain = 0
KTH1 110630Z 14004KT 24/20 A3006 RMK A01 T02350204  RH  083%=      5-min Rain = 0
KTH1 110631Z 14004KT 24/20 A3006 RMK A01 T02350204  RH  083%=      5-min Rain = 0
KTH1 110632Z 14003KT 24/20 A3006 RMK A01 T02350204  RH  083%=      5-min Rain = 0
KTH1 110633Z 14003KT 24/20 A3006 RMK A01 T02350204  RH  083%=      5-min Rain = 0
KTH1 110634Z 14003KT 24/20 A3006 RMK A01 T02350204  RH  083%=      5-min Rain = 0
KTH1 110635Z 14004KT 24/21 A3006 RMK A01 T02350205  RH  083%=      5-min Rain = 0
KTH1 110636Z 14003KT 24/21 A3006 RMK A01 T02350205  RH  083%=      5-min Rain = 0
KTH1 110637Z 13003KT 24/21 A3006 RMK A01 T02350205  RH  083%=      5-min Rain = 0
KTH1 110638Z 13003KT 24/20 A3006 RMK A01 T02350204  RH  083%=      5-min Rain = 0
KTH1 110639Z 13003KT 24/20 A3006 RMK A01 T02350204  RH  083%=      5-min Rain = 0
KTH1 110640Z 13002KT 23/20 A3006 RMK A01 T02340204  RH  083%=      5-min Rain = 0
KTH1 110641Z 12002KT 23/20 A3006 RMK A01 T02340204  RH  083%=      5-min Rain = 0
KTH1 110642Z 12002KT 23/20 A3006 RMK A01 T02340204  RH  083%=      5-min Rain = 0
KTH1 110643Z 12002KT 23/20 A3006 RMK A01 T02340204  RH  083%=      5-min Rain = 0
KTH1 110644Z 13002KT 23/20 A3006 RMK A01 T02340204  RH  083%=      5-min Rain = 0
KTH1 110645Z 13002KT 23/20 A3006 RMK A01 T02340204  RH  083%=      5-min Rain = 0
KTH1 110646Z 13002KT 23/20 A3006 RMK A01 T02330204  RH  083%=      5-min Rain = 0
KTH1 110647Z 14002KT 23/20 A3006 RMK A01 T02330204  RH  083%=      5-min Rain = 0
KTH1 110648Z 14002KT 23/20 A3006 RMK A01 T02330203  RH  083%=      5-min Rain = 0
KTH1 110649Z 15002KT 23/20 A3006 RMK A01 T02330203  RH  083%=      5-min Rain = 0
KTH1 110650Z 14003KT 23/20 A3006 RMK A01 T02320203  RH  083%=      5-min Rain = 0
KTH1 110651Z 14002KT 23/20 A3006 RMK A01 T02320203  RH  084%=      5-min Rain = 0
KTH1 110652Z 15003KT 23/20 A3006 RMK A01 T02320202  RH  084%=      5-min Rain = 0
KTH1 110653Z 15002KT 23/20 A3006 RMK A01 T02320203  RH  084%=      5-min Rain = 0
KTH1 110654Z 15003KT 23/20 A3006 RMK A01 T02320203  RH  084%=      5-min Rain = 0
KTH1 110655Z 15003KT 23/20 A3006 RMK A01 T02320203  RH  084%=      5-min Rain = 0
KTH1 110656Z 15003KT 23/20 A3006 RMK A01 T02320203  RH  084%=      5-min Rain = 0
KTH1 110657Z 15003KT 23/20 A3006 RMK A01 T02310203  RH  084%=      5-min Rain = 0
KTH1 110658Z 15003KT 23/20 A3006 RMK A01 T02310202  RH  084%=      5-min Rain = 0
KTH1 110659Z 15003KT 23/20 A3006 RMK A01 T02310203  RH  084%=      5-min Rain = 0
KTH1 110700Z 15003KT 23/20 A3006 RMK A01 T02310203  RH  084%=      5-min Rain = 0
KTH1 110701Z 15002KT 23/20 A3006 RMK A01 T02310203  RH  084%=      5-min Rain = 0
KTH1 110702Z 15003KT 23/20 A3006 RMK A01 T02310203  RH  084%=      5-min Rain = 0
KTH1 110703Z 15003KT 23/20 A3006 RMK A01 T02310203  RH  084%=      5-min Rain = 0
KTH1 110704Z 15003KT 23/20 A3006 RMK A01 T02300203  RH  084%=      5-min Rain = 0
KTH1 110705Z 15003KT 23/20 A3006 RMK A01 T02300203  RH  084%=      5-min Rain = 0
KTH1 110706Z 15002KT 23/20 A3006 RMK A01 T02300203  RH  085%=      5-min Rain = 0
KTH1 110707Z 15002KT 23/20 A3006 RMK A01 T02300203  RH  085%=      5-min Rain = 0
KTH1 110708Z 15002KT 23/20 A3006 RMK A01 T02300203  RH  085%=      5-min Rain = 0
KTH1 110709Z 16002KT 23/20 A3006 RMK A01 T02300203  RH  085%=      5-min Rain = 0
KTH1 110710Z 16002KT 23/20 A3006 RMK A01 T02290203  RH  085%=      5-min Rain = 0
KTH1 110711Z 15002KT 23/20 A3006 RMK A01 T02290203  RH  085%=      5-min Rain = 0
KTH1 110712Z 16002KT 23/20 A3006 RMK A01 T02290203  RH  085%=      5-min Rain = 0
KTH1 110713Z 16003KT 23/20 A3006 RMK A01 T02290203  RH  085%=      5-min Rain = 0
KTH1 110714Z 16003KT 23/20 A3006 RMK A01 T02290203  RH  085%=      5-min Rain = 0
KTH1 110715Z 17002KT 23/20 A3006 RMK A01 T02290203  RH  085%=      5-min Rain = 0
KTH1 110716Z 17002KT 23/20 A3006 RMK A01 T02290203  RH  085%=      5-min Rain = 0
KTH1 110717Z 17002KT 23/20 A3006 RMK A01 T02290203  RH  085%=      5-min Rain = 0
KTH1 110718Z 19001KT 23/20 A3006 RMK A01 T02290203  RH  085%=      5-min Rain = 0
KTH1 110719Z 20001KT 23/20 A3006 RMK A01 T02290203  RH  085%=      5-min Rain = 0
KTH1 110720Z 20002KT 23/20 A3006 RMK A01 T02290203  RH  085%=      5-min Rain = 0
KTH1 110721Z 20002KT 23/20 A3006 RMK A01 T02290203  RH  085%=      5-min Rain = 0
KTH1 110722Z 21002KT 23/20 A3006 RMK A01 T02290203  RH  085%=      5-min Rain = 0
KTH1 110723Z 20003KT 23/20 A3006 RMK A01 T02290203  RH  085%=      5-min Rain = 0
KTH1 110724Z 20003KT 23/20 A3005 RMK A01 T02280202  RH  085%=      5-min Rain = 0
KTH1 110725Z 20003KT 23/20 A3005 RMK A01 T02280202  RH  085%=      5-min Rain = 0
KTH1 110726Z 20003KT 23/20 A3005 RMK A01 T02270202  RH  086%=      5-min Rain = 0
KTH1 110727Z 20003KT 23/20 A3005 RMK A01 T02270202  RH  086%=      5-min Rain = 0
KTH1 110728Z 20003KT 23/20 A3005 RMK A01 T02270202  RH  086%=      5-min Rain = 0
KTH1 110729Z 20003KT 23/20 A3005 RMK A01 T02270203  RH  086%=      5-min Rain = 0
KTH1 110730Z 20003KT 23/20 A3005 RMK A01 T02270203  RH  086%=      5-min Rain = 0
KTH1 110731Z 19003KT 23/20 A3005 RMK A01 T02270203  RH  086%=      5-min Rain = 0
KTH1 110732Z 19003KT 23/20 A3005 RMK A01 T02270203  RH  086%=      5-min Rain = 0
KTH1 110733Z 19003KT 23/20 A3005 RMK A01 T02270203  RH  086%=      5-min Rain = 0
KTH1 110734Z 19003KT 23/20 A3005 RMK A01 T02270202  RH  086%=      5-min Rain = 0
KTH1 110735Z 19003KT 23/20 A3005 RMK A01 T02270202  RH  086%=      5-min Rain = 0
KTH1 110736Z 19003KT 23/20 A3005 RMK A01 T02280203  RH  086%=      5-min Rain = 0
KTH1 110737Z 19002KT 23/20 A3005 RMK A01 T02270202  RH  086%=      5-min Rain = 0
KTH1 110738Z 19002KT 23/20 A3005 RMK A01 T02280202  RH  086%=      5-min Rain = 0
KTH1 110739Z 19002KT 23/20 A3005 RMK A01 T02270202  RH  086%=      5-min Rain = 0
KTH1 110740Z 19002KT 23/20 A3005 RMK A01 T02270202  RH  086%=      5-min Rain = 0
KTH1 110741Z 19003KT 23/20 A3005 RMK A01 T02280202  RH  086%=      5-min Rain = 0
KTH1 110742Z 19002KT 23/20 A3005 RMK A01 T02270202  RH  086%=      5-min Rain = 0
KTH1 110743Z 19002KT 23/20 A3005 RMK A01 T02270202  RH  086%=      5-min Rain = 0
KTH1 110744Z 19003KT 23/20 A3005 RMK A01 T02270202  RH  086%=      5-min Rain = 0
KTH1 110745Z 19003KT 23/20 A3005 RMK A01 T02270202  RH  086%=      5-min Rain = 0
KTH1 110746Z 19003KT 23/20 A3005 RMK A01 T02270202  RH  086%=      5-min Rain = 0
KTH1 110747Z 19003KT 23/20 A3005 RMK A01 T02270202  RH  086%=      5-min Rain = 0
KTH1 110748Z 19003KT 23/20 A3005 RMK A01 T02260202  RH  086%=      5-min Rain = 0
KTH1 110749Z 19002KT 23/20 A3005 RMK A01 T02260202  RH  086%=      5-min Rain = 0
KTH1 110750Z 19002KT 23/20 A3005 RMK A01 T02260202  RH  086%=      5-min Rain = 0
KTH1 110751Z 19003KT 23/20 A3005 RMK A01 T02260202  RH  086%=      5-min Rain = 0
KTH1 110752Z 19003KT 23/20 A3005 RMK A01 T02260202  RH  086%=      5-min Rain = 0
KTH1 110753Z 19003KT 23/20 A3005 RMK A01 T02260202  RH  086%=      5-min Rain = 0
KTH1 110754Z 19003KT 23/20 A3005 RMK A01 T02260202  RH  086%=      5-min Rain = 0
KTH1 110755Z 19003KT 23/20 A3005 RMK A01 T02260202  RH  086%=      5-min Rain = 0
KTH1 110756Z 19003KT 23/20 A3005 RMK A01 T02260202  RH  086%=      5-min Rain = 0
KTH1 110757Z 19004KT 23/20 A3005 RMK A01 T02260201  RH  086%=      5-min Rain = 0
KTH1 110758Z 19003KT 23/20 A3005 RMK A01 T02260202  RH  086%=      5-min Rain = 0
KTH1 110759Z 19003KT 23/20 A3005 RMK A01 T02260201  RH  086%=      5-min Rain = 0
KTH1 110800Z 19003KT 23/20 A3005 RMK A01 T02260202  RH  086%=      5-min Rain = 0
KTH1 110801Z 19004KT 23/20 A3005 RMK A01 T02260201  RH  086%=      5-min Rain = 0
KTH1 110802Z 20004KT 23/20 A3005 RMK A01 T02260202  RH  086%=      5-min Rain = 0
KTH1 110803Z 19004KT 23/20 A3005 RMK A01 T02260202  RH  086%=      5-min Rain = 0
KTH1 110804Z 20004KT 23/20 A3005 RMK A01 T02260202  RH  086%=      5-min Rain = 0
KTH1 110805Z 19004KT 23/20 A3005 RMK A01 T02270202  RH  086%=      5-min Rain = 0
KTH1 110806Z 19004KT 23/20 A3005 RMK A01 T02260202  RH  086%=      5-min Rain = 0
KTH1 110807Z 18004KT 23/20 A3005 RMK A01 T02270203  RH  086%=      5-min Rain = 0
KTH1 110808Z 19004KT 23/20 A3005 RMK A01 T02270203  RH  086%=      5-min Rain = 0
KTH1 110809Z 19005KT 23/20 A3005 RMK A01 T02280203  RH  086%=      5-min Rain = 0
KTH1 110810Z 18004KT 23/20 A3005 RMK A01 T02280204  RH  086%=      5-min Rain = 0
KTH1 110811Z 18005KT 23/20 A3005 RMK A01 T02290203  RH  086%=      5-min Rain = 0
KTH1 110812Z 18005KT 23/20 A3005 RMK A01 T02290203  RH  086%=      5-min Rain = 0
KTH1 110813Z 19004KT 23/20 A3005 RMK A01 T02290203  RH  085%=      5-min Rain = 0
KTH1 110814Z 19005KT 23/20 A3005 RMK A01 T02290203  RH  085%=      5-min Rain = 0
KTH1 110815Z 18005KT 23/20 A3005 RMK A01 T02300203  RH  085%=      5-min Rain = 0
KTH1 110816Z 19006KT 23/20 A3005 RMK A01 T02300203  RH  085%=      5-min Rain = 0
KTH1 110817Z 19005KT 23/20 A3005 RMK A01 T02300203  RH  085%=      5-min Rain = 0
KTH1 110818Z 19006KT 23/20 A3005 RMK A01 T02310204  RH  085%=      5-min Rain = 0
KTH1 110819Z 19006KT 23/20 A3005 RMK A01 T02320204  RH  084%=      5-min Rain = 0
KTH1 110820Z 19006KT 23/20 A3005 RMK A01 T02330204  RH  084%=      5-min Rain = 0
KTH1 110821Z 20005KT 23/20 A3005 RMK A01 T02330204  RH  084%=      5-min Rain = 0
KTH1 110822Z 19005KT 23/20 A3005 RMK A01 T02340204  RH  083%=      5-min Rain = 0
KTH1 110823Z 19006KT 23/20 A3005 RMK A01 T02340204  RH  083%=      5-min Rain = 0
KTH1 110824Z 20005KT 23/20 A3005 RMK A01 T02340204  RH  083%=      5-min Rain = 0
KTH1 110825Z 19007KT 24/20 A3005 RMK A01 T02350204  RH  083%=      5-min Rain = 0
KTH1 110826Z 20007KT 24/20 A3005 RMK A01 T02350204  RH  083%=      5-min Rain = 0
KTH1 110827Z 20007KT 24/20 A3004 RMK A01 T02350204  RH  083%=      5-min Rain = 0
KTH1 110828Z 20006KT 24/20 A3005 RMK A01 T02350204  RH  082%=      5-min Rain = 0
KTH1 110829Z 20006KT 24/20 A3004 RMK A01 T02350203  RH  082%=      5-min Rain = 0
KTH1 110830Z 20007KT 24/20 A3004 RMK A01 T02350204  RH  082%=      5-min Rain = 0
KTH1 110831Z 20005KT 24/20 A3004 RMK A01 T02350203  RH  082%=      5-min Rain = 0
KTH1 110832Z 19006KT 24/20 A3004 RMK A01 T02350204  RH  082%=      5-min Rain = 0
KTH1 110833Z 20006KT 24/20 A3004 RMK A01 T02350204  RH  082%=      5-min Rain = 0
KTH1 110834Z 20005KT 24/20 A3004 RMK A01 T02350204  RH  082%=      5-min Rain = 0
KTH1 110835Z 20005KT 24/20 A3004 RMK A01 T02350204  RH  082%=      5-min Rain = 0
KTH1 110836Z 20006KT 24/20 A3004 RMK A01 T02350204  RH  082%=      5-min Rain = 0
KTH1 110837Z 20006KT 24/20 A3004 RMK A01 T02350203  RH  082%=      5-min Rain = 0
KTH1 110838Z 20005KT 24/20 A3004 RMK A01 T02350204  RH  082%=      5-min Rain = 0
KTH1 110839Z 20006KT 24/20 A3004 RMK A01 T02350204  RH  082%=      5-min Rain = 0
KTH1 110840Z 21005KT 24/20 A3004 RMK A01 T02350204  RH  082%=      5-min Rain = 0
KTH1 110841Z 20005KT 24/20 A3004 RMK A01 T02350203  RH  083%=      5-min Rain = 0
KTH1 110842Z 19007KT 24/20 A3004 RMK A01 T02350203  RH  082%=      5-min Rain = 0
KTH1 110843Z 20006KT 24/20 A3004 RMK A01 T02350203  RH  083%=      5-min Rain = 0
KTH1 110844Z 19005KT 24/20 A3004 RMK A01 T02350204  RH  083%=      5-min Rain = 0
KTH1 110845Z 19005KT 23/20 A3004 RMK A01 T02340203  RH  083%=      5-min Rain = 0
KTH1 110846Z 20006KT 23/20 A3004 RMK A01 T02340203  RH  083%=      5-min Rain = 0
KTH1 110847Z 20006KT 23/20 A3004 RMK A01 T02340203  RH  083%=      5-min Rain = 0
KTH1 110848Z 21006KT 23/20 A3004 RMK A01 T02340203  RH  083%=      5-min Rain = 0
KTH1 110849Z 19005KT 23/20 A3004 RMK A01 T02340203  RH  083%=      5-min Rain = 0
KTH1 110850Z 20004KT 23/20 A3004 RMK A01 T02340203  RH  083%=      5-min Rain = 0
KTH1 110851Z 21004KT 23/20 A3004 RMK A01 T02340203  RH  083%=      5-min Rain = 0
KTH1 110852Z 21005KT 23/20 A3004 RMK A01 T02330203  RH  083%=      5-min Rain = 0
KTH1 110853Z 21005KT 23/20 A3004 RMK A01 T02330203  RH  083%=      5-min Rain = 0
KTH1 110854Z 20004KT 23/20 A3004 RMK A01 T02330203  RH  083%=      5-min Rain = 0
KTH1 110855Z 20004KT 23/20 A3004 RMK A01 T02330204  RH  083%=      5-min Rain = 0
KTH1 110856Z 21005KT 23/20 A3004 RMK A01 T02330203  RH  083%=      5-min Rain = 0
KTH1 110857Z 21005KT 23/20 A3004 RMK A01 T02330204  RH  084%=      5-min Rain = 0
KTH1 110858Z 22005KT 23/20 A3004 RMK A01 T02330204  RH  084%=      5-min Rain = 0
KTH1 110859Z 21005KT 23/20 A3004 RMK A01 T02320204  RH  084%=      5-min Rain = 0
KTH1 110900Z 21005KT 23/20 A3004 RMK A01 T02320203  RH  084%=      5-min Rain = 0
KTH1 110901Z 21005KT 23/20 A3004 RMK A01 T02310204  RH  084%=      5-min Rain = 0
KTH1 110902Z 21004KT 23/20 A3004 RMK A01 T02310204  RH  085%=      5-min Rain = 0
KTH1 110903Z 21005KT 23/20 A3004 RMK A01 T02310203  RH  085%=      5-min Rain = 0
KTH1 110904Z 21004KT 23/20 A3004 RMK A01 T02300203  RH  085%=      5-min Rain = 0
KTH1 110905Z 20004KT 23/20 A3004 RMK A01 T02300204  RH  085%=      5-min Rain = 0
KTH1 110906Z 20005KT 23/20 A3004 RMK A01 T02300203  RH  085%=      5-min Rain = 0
KTH1 110907Z 20005KT 23/20 A3004 RMK A01 T02300203  RH  085%=      5-min Rain = 0
KTH1 110908Z 21005KT 23/20 A3004 RMK A01 T02300204  RH  085%=      5-min Rain = 0
KTH1 110909Z 20006KT 23/20 A3004 RMK A01 T02300204  RH  085%=      5-min Rain = 0
KTH1 110910Z 20005KT 23/20 A3004 RMK A01 T02300204  RH  085%=      5-min Rain = 0
KTH1 110911Z 20005KT 23/20 A3004 RMK A01 T02300204  RH  085%=      5-min Rain = 0
KTH1 110912Z 21005KT 23/20 A3004 RMK A01 T02300203  RH  085%=      5-min Rain = 0
KTH1 110913Z 20004KT 23/20 A3004 RMK A01 T02300204  RH  085%=      5-min Rain = 0
KTH1 110914Z 20005KT 23/20 A3004 RMK A01 T02300203  RH  085%=      5-min Rain = 0
KTH1 110915Z 20006KT 23/20 A3004 RMK A01 T02300203  RH  085%=      5-min Rain = 0
KTH1 110916Z 21004KT 23/20 A3004 RMK A01 T02300203  RH  085%=      5-min Rain = 0
KTH1 110917Z 20004KT 23/20 A3004 RMK A01 T02300203  RH  085%=      5-min Rain = 0
KTH1 110918Z 20004KT 23/20 A3005 RMK A01 T02300203  RH  085%=      5-min Rain = 0
KTH1 110919Z 20005KT 23/20 A3005 RMK A01 T02300203  RH  085%=      5-min Rain = 0
KTH1 110920Z 20005KT 23/20 A3005 RMK A01 T02300203  RH  085%=      5-min Rain = 0
KTH1 110921Z 20005KT 23/20 A3005 RMK A01 T02310203  RH  084%=      5-min Rain = 0
KTH1 110922Z 20005KT 23/20 A3005 RMK A01 T02300203  RH  084%=      5-min Rain = 0
KTH1 110923Z 19005KT 23/20 A3005 RMK A01 T02310203  RH  084%=      5-min Rain = 0
KTH1 110924Z 19005KT 23/20 A3005 RMK A01 T02310203  RH  084%=      5-min Rain = 0
KTH1 110925Z 18005KT 23/20 A3004 RMK A01 T02310203  RH  084%=      5-min Rain = 0
KTH1 110926Z 19006KT 23/20 A3004 RMK A01 T02320203  RH  084%=      5-min Rain = 0
KTH1 110927Z 19006KT 23/20 A3004 RMK A01 T02320203  RH  084%=      5-min Rain = 0
KTH1 110928Z 19005KT 23/20 A3004 RMK A01 T02320203  RH  083%=      5-min Rain = 0
KTH1 110929Z 19006KT 23/20 A3004 RMK A01 T02320203  RH  083%=      5-min Rain = 0
KTH1 110930Z 18006KT 23/20 A3004 RMK A01 T02320202  RH  083%=      5-min Rain = 0
KTH1 110931Z 18006KT 23/20 A3004 RMK A01 T02330203  RH  083%=      5-min Rain = 0
KTH1 110932Z 19006KT 23/20 A3004 RMK A01 T02340203  RH  083%=      5-min Rain = 0
KTH1 110933Z 18006KT 23/20 A3004 RMK A01 T02340202  RH  082%=      5-min Rain = 0
KTH1 110934Z 19006KT 23/20 A3004 RMK A01 T02340202  RH  082%=      5-min Rain = 0
KTH1 110935Z 18007KT 24/20 A3004 RMK A01 T02350202  RH  082%=      5-min Rain = 0
KTH1 110936Z 19005KT 24/20 A3004 RMK A01 T02350202  RH  082%=      5-min Rain = 0
KTH1 110937Z 18006KT 24/20 A3004 RMK A01 T02350202  RH  081%=      5-min Rain = 0
KTH1 110938Z 18007KT 24/20 A3004 RMK A01 T02360202  RH  081%=      5-min Rain = 0
KTH1 110939Z 19007KT 24/20 A3004 RMK A01 T02360201  RH  081%=      5-min Rain = 0
KTH1 110940Z 19006KT 24/20 A3004 RMK A01 T02370201  RH  080%=      5-min Rain = 0
KTH1 110941Z 19006KT 24/20 A3004 RMK A01 T02370201  RH  080%=      5-min Rain = 0
KTH1 110942Z 19006KT 24/20 A3004 RMK A01 T02380201  RH  080%=      5-min Rain = 0
KTH1 110943Z 18005KT 24/20 A3004 RMK A01 T02380201  RH  080%=      5-min Rain = 0
KTH1 110944Z 19006KT 24/20 A3004 RMK A01 T02380200  RH  079%=      5-min Rain = 0
KTH1 110945Z 19006KT 24/20 A3004 RMK A01 T02380200  RH  079%=      5-min Rain = 0
KTH1 110946Z 19006KT 24/20 A3004 RMK A01 T02390200  RH  079%=      5-min Rain = 0
KTH1 110947Z 19005KT 24/20 A3004 RMK A01 T02390200  RH  079%=      5-min Rain = 0
KTH1 110948Z 20006KT 24/20 A3004 RMK A01 T02390200  RH  079%=      5-min Rain = 0
KTH1 110949Z 20008KT 24/20 A3004 RMK A01 T02390199  RH  078%=      5-min Rain = 0
KTH1 110950Z 19007KT 24/20 A3004 RMK A01 T02400199  RH  078%=      5-min Rain = 0
KTH1 110951Z 19005KT 24/20 A3004 RMK A01 T02400199  RH  078%=      5-min Rain = 0
KTH1 110952Z 20006KT 24/20 A3004 RMK A01 T02400198  RH  077%=      5-min Rain = 0
KTH1 110953Z 19006KT 24/20 A3004 RMK A01 T02400198  RH  077%=      5-min Rain = 0
KTH1 110954Z 20006KT 24/20 A3004 RMK A01 T02400198  RH  077%=      5-min Rain = 0
KTH1 110955Z 20006KT 24/20 A3004 RMK A01 T02410197  RH  077%=      5-min Rain = 0
KTH1 110956Z 20006KT 24/20 A3004 RMK A01 T02410197  RH  076%=      5-min Rain = 0
KTH1 110957Z 20006KT 24/20 A3004 RMK A01 T02410197  RH  076%=      5-min Rain = 0
KTH1 110958Z 20006KT 24/20 A3004 RMK A01 T02410197  RH  076%=      5-min Rain = 0
KTH1 110959Z 20005KT 24/20 A3004 RMK A01 T02410196  RH  076%=      5-min Rain = 0
KTH1 111000Z 21005KT 24/20 A3004 RMK A01 T02420197  RH  076%=      5-min Rain = 0
KTH1 111001Z 21005KT 24/20 A3004 RMK A01 T02420197  RH  076%=      5-min Rain = 0
KTH1 111002Z 21005KT 24/20 A3004 RMK A01 T02420197  RH  076%=      5-min Rain = 0
KTH1 111003Z 21006KT 24/20 A3004 RMK A01 T02420197  RH  076%=      5-min Rain = 0
KTH1 111004Z 21005KT 24/20 A3004 RMK A01 T02420197  RH  076%=      5-min Rain = 0
KTH1 111005Z 22005G10KT 24/20 A3004 RMK A01 T02420197  RH  076%=      5-min Rain = 0
KTH1 111006Z 21006KT 24/20 A3004 RMK A01 T02420198  RH  076%=      5-min Rain = 0
KTH1 111007Z 21006KT 24/20 A3004 RMK A01 T02410198  RH  076%=      5-min Rain = 0
KTH1 111008Z 21006KT 24/20 A3004 RMK A01 T02410198  RH  077%=      5-min Rain = 0
KTH1 111009Z 21006KT 24/20 A3004 RMK A01 T02410198  RH  077%=      5-min Rain = 0
KTH1 111010Z 21006KT 24/20 A3004 RMK A01 T02410198  RH  077%=      5-min Rain = 0
KTH1 111011Z 21006KT 24/20 A3004 RMK A01 T02400198  RH  077%=      5-min Rain = 0
KTH1 111012Z 21004KT 24/20 A3004 RMK A01 T02400198  RH  077%=      5-min Rain = 0
KTH1 111013Z 21005KT 24/20 A3004 RMK A01 T02400198  RH  077%=      5-min Rain = 0
KTH1 111014Z 21006KT 24/20 A3004 RMK A01 T02400198  RH  077%=      5-min Rain = 0
KTH1 111015Z 20005KT 24/20 A3004 RMK A01 T02390198  RH  077%=      5-min Rain = 0
KTH1 111016Z 21005KT 24/20 A3004 RMK A01 T02390198  RH  077%=      5-min Rain = 0
KTH1 111017Z 21005KT 24/20 A3004 RMK A01 T02390197  RH  077%=      5-min Rain = 0
KTH1 111018Z 21005KT 24/20 A3004 RMK A01 T02390197  RH  077%=      5-min Rain = 0
KTH1 111019Z 21006KT 24/20 A3004 RMK A01 T02390197  RH  077%=      5-min Rain = 0
KTH1 111020Z 21005KT 24/20 A3004 RMK A01 T02390197  RH  077%=      5-min Rain = 0
KTH1 111021Z 21006KT 24/20 A3004 RMK A01 T02390197  RH  077%=      5-min Rain = 0
KTH1 111022Z 20006KT 24/20 A3004 RMK A01 T02390197  RH  077%=      5-min Rain = 0
KTH1 111023Z 21007KT 24/20 A3004 RMK A01 T02390197  RH  077%=      5-min Rain = 0
KTH1 111024Z 21006KT 24/20 A3004 RMK A01 T02390197  RH  077%=      5-min Rain = 0
KTH1 111025Z 20005KT 24/20 A3004 RMK A01 T02390197  RH  077%=      5-min Rain = 0
KTH1 111026Z 21006KT 24/20 A3004 RMK A01 T02390197  RH  077%=      5-min Rain = 0
KTH1 111027Z 21006KT 24/20 A3004 RMK A01 T02390196  RH  077%=      5-min Rain = 0
KTH1 111028Z 21005KT 24/20 A3004 RMK A01 T02380196  RH  077%=      5-min Rain = 0
KTH1 111029Z 21006KT 24/20 A3004 RMK A01 T02380196  RH  077%=      5-min Rain = 0
KTH1 111030Z 21006KT 24/20 A3004 RMK A01 T02390197  RH  077%=      5-min Rain = 0
KTH1 111031Z 21006KT 24/20 A3004 RMK A01 T02380196  RH  077%=      5-min Rain = 0
KTH1 111032Z 20006KT 24/20 A3004 RMK A01 T02380196  RH  077%=      5-min Rain = 0
KTH1 111033Z 20005KT 24/20 A3004 RMK A01 T02390196  RH  077%=      5-min Rain = 0
KTH1 111034Z 20006KT 24/20 A3004 RMK A01 T02390196  RH  077%=      5-min Rain = 0
KTH1 111035Z 20005KT 24/20 A3004 RMK A01 T02380196  RH  077%=      5-min Rain = 0
KTH1 111036Z 21007KT 24/20 A3004 RMK A01 T02390196  RH  077%=      5-min Rain = 0
KTH1 111037Z 21006KT 24/20 A3004 RMK A01 T02380195  RH  077%=      5-min Rain = 0
KTH1 111038Z 20007KT 24/20 A3004 RMK A01 T02390195  RH  076%=      5-min Rain = 0
KTH1 111039Z 20006KT 24/19 A3004 RMK A01 T02380194  RH  076%=      5-min Rain = 0
KTH1 111040Z 20005KT 24/19 A3004 RMK A01 T02390194  RH  076%=      5-min Rain = 0
KTH1 111041Z 20006KT 24/19 A3004 RMK A01 T02390194  RH  076%=      5-min Rain = 0
KTH1 111042Z 20006KT 24/19 A3004 RMK A01 T02390194  RH  076%=      5-min Rain = 0
KTH1 111043Z 20006KT 24/19 A3004 RMK A01 T02390194  RH  076%=      5-min Rain = 0
KTH1 111044Z 20006KT 24/19 A3004 RMK A01 T02400194  RH  076%=      5-min Rain = 0
KTH1 111045Z 21005KT 24/19 A3004 RMK A01 T02400194  RH  075%=      5-min Rain = 0
KTH1 111046Z 20005KT 24/19 A3004 RMK A01 T02390193  RH  075%=      5-min Rain = 0
KTH1 111047Z 21006KT 24/19 A3004 RMK A01 T02390193  RH  075%=      5-min Rain = 0
KTH1 111048Z 20005KT 24/19 A3004 RMK A01 T02390193  RH  075%=      5-min Rain = 0
KTH1 111049Z 20006KT 24/19 A3004 RMK A01 T02390193  RH  075%=      5-min Rain = 0
KTH1 111050Z 20005KT 24/19 A3004 RMK A01 T02390192  RH  075%=      5-min Rain = 0
KTH1 111051Z 21006KT 24/19 A3004 RMK A01 T02400193  RH  075%=      5-min Rain = 0
KTH1 111052Z 20006KT 24/19 A3004 RMK A01 T02400193  RH  075%=      5-min Rain = 0
KTH1 111053Z 21006KT 24/19 A3004 RMK A01 T02390192  RH  075%=      5-min Rain = 0
KTH1 111054Z 20005KT 24/19 A3004 RMK A01 T02390192  RH  075%=      5-min Rain = 0
KTH1 111055Z 20006KT 24/19 A3004 RMK A01 T02390192  RH  075%=      5-min Rain = 0
KTH1 111056Z 20006KT 24/19 A3004 RMK A01 T02400192  RH  075%=      5-min Rain = 0
KTH1 111057Z 21007KT 24/19 A3004 RMK A01 T02400192  RH  075%=      5-min Rain = 0
KTH1 111058Z 20006KT 24/19 A3004 RMK A01 T02390192  RH  075%=      5-min Rain = 0
KTH1 111059Z 20005KT 24/19 A3004 RMK A01 T02400192  RH  074%=      5-min Rain = 0
KTH1 111100Z 21006KT 24/19 A3004 RMK A01 T02400191  RH  074%=      5-min Rain = 0
KTH1 111101Z 20006KT 24/19 A3004 RMK A01 T02400191  RH  074%=      5-min Rain = 0
KTH1 111102Z 20004KT 24/19 A3004 RMK A01 T02400191  RH  074%=      5-min Rain = 0
KTH1 111103Z 21005KT 24/19 A3004 RMK A01 T02400191  RH  074%=      5-min Rain = 0
KTH1 111104Z 20005KT 24/19 A3005 RMK A01 T02400191  RH  074%=      5-min Rain = 0
KTH1 111105Z 21005KT 24/19 A3005 RMK A01 T02400191  RH  074%=      5-min Rain = 0
KTH1 111106Z 20005KT 24/19 A3005 RMK A01 T02400191  RH  074%=      5-min Rain = 0
KTH1 111107Z 20004KT 24/19 A3005 RMK A01 T02400190  RH  074%=      5-min Rain = 0
KTH1 111108Z 20005KT 24/19 A3005 RMK A01 T02390190  RH  074%=      5-min Rain = 0
KTH1 111109Z 21006KT 24/19 A3005 RMK A01 T02390190  RH  074%=      5-min Rain = 0
KTH1 111110Z 21006KT 24/19 A3005 RMK A01 T02400190  RH  074%=      5-min Rain = 0
KTH1 111111Z 22004KT 24/19 A3005 RMK A01 T02390190  RH  074%=      5-min Rain = 0
KTH1 111112Z 21006KT 24/19 A3005 RMK A01 T02390190  RH  074%=      5-min Rain = 0
KTH1 111113Z 22005KT 24/19 A3005 RMK A01 T02390190  RH  074%=      5-min Rain = 0
KTH1 111114Z 21005KT 24/19 A3005 RMK A01 T02390191  RH  074%=      5-min Rain = 0
KTH1 111115Z 21005KT 24/19 A3005 RMK A01 T02390190  RH  074%=      5-min Rain = 0
KTH1 111116Z 21005KT 24/19 A3005 RMK A01 T02380190  RH  074%=      5-min Rain = 0
KTH1 111117Z 21005KT 24/19 A3005 RMK A01 T02390190  RH  074%=      5-min Rain = 0
KTH1 111118Z 22005KT 24/19 A3005 RMK A01 T02380190  RH  074%=      5-min Rain = 0
KTH1 111119Z 21005KT 24/19 A3005 RMK A01 T02380190  RH  075%=      5-min Rain = 0
KTH1 111120Z 21005KT 24/19 A3005 RMK A01 T02380190  RH  075%=      5-min Rain = 0
KTH1 111121Z 21005KT 24/19 A3005 RMK A01 T02370190  RH  075%=      5-min Rain = 0
KTH1 111122Z 22006KT 24/19 A3005 RMK A01 T02370190  RH  075%=      5-min Rain = 0
KTH1 111123Z 22005KT 24/19 A3005 RMK A01 T02370190  RH  075%=      5-min Rain = 0
KTH1 111124Z 22005KT 24/19 A3005 RMK A01 T02370190  RH  075%=      5-min Rain = 0
KTH1 111125Z 22004KT 24/19 A3005 RMK A01 T02370189  RH  075%=      5-min Rain = 0
KTH1 111126Z 21005KT 24/19 A3005 RMK A01 T02370190  RH  075%=      5-min Rain = 0
KTH1 111127Z 21005KT 24/19 A3005 RMK A01 T02370190  RH  075%=      5-min Rain = 0
KTH1 111128Z 21004KT 24/19 A3005 RMK A01 T02370190  RH  075%=      5-min Rain = 0
KTH1 111129Z 21006KT 24/19 A3005 RMK A01 T02370189  RH  075%=      5-min Rain = 0
KTH1 111130Z 21005KT 24/19 A3005 RMK A01 T02370189  RH  075%=      5-min Rain = 0
KTH1 111131Z 21005KT 24/19 A3005 RMK A01 T02360189  RH  075%=      5-min Rain = 0
KTH1 111132Z 21004KT 24/19 A3005 RMK A01 T02360189  RH  075%=      5-min Rain = 0
KTH1 111133Z 21005KT 24/19 A3005 RMK A01 T02360189  RH  075%=      5-min Rain = 0
KTH1 111134Z 21005KT 24/19 A3005 RMK A01 T02360189  RH  075%=      5-min Rain = 0
KTH1 111135Z 21004KT 24/19 A3005 RMK A01 T02360189  RH  075%=      5-min Rain = 0
KTH1 111136Z 21005KT 24/19 A3005 RMK A01 T02360189  RH  075%=      5-min Rain = 0
KTH1 111137Z 21004KT 24/19 A3005 RMK A01 T02350189  RH  075%=      5-min Rain = 0
KTH1 111138Z 20004KT 24/19 A3005 RMK A01 T02350189  RH  076%=      5-min Rain = 0
KTH1 111139Z 20004KT 24/19 A3005 RMK A01 T02350190  RH  076%=      5-min Rain = 0
KTH1 111140Z 20003KT 24/19 A3005 RMK A01 T02350190  RH  076%=      5-min Rain = 0
KTH1 111141Z 20004KT 23/19 A3006 RMK A01 T02340189  RH  076%=      5-min Rain = 0
KTH1 111142Z 19004KT 23/19 A3006 RMK A01 T02340190  RH  076%=      5-min Rain = 0
KTH1 111143Z 20004KT 23/19 A3006 RMK A01 T02330190  RH  076%=      5-min Rain = 0
KTH1 111144Z 20004KT 23/19 A3006 RMK A01 T02330190  RH  077%=      5-min Rain = 0
KTH1 111145Z 20004KT 23/19 A3006 RMK A01 T02320190  RH  077%=      5-min Rain = 0
KTH1 111146Z 20004KT 23/19 A3006 RMK A01 T02320190  RH  077%=      5-min Rain = 0
KTH1 111147Z 19004KT 23/19 A3006 RMK A01 T02320190  RH  077%=      5-min Rain = 0
KTH1 111148Z 20004KT 23/19 A3006 RMK A01 T02310190  RH  078%=      5-min Rain = 0
KTH1 111149Z 20005KT 23/19 A3006 RMK A01 T02310190  RH  078%=      5-min Rain = 0
KTH1 111150Z 20004KT 23/19 A3006 RMK A01 T02310190  RH  078%=      5-min Rain = 0
KTH1 111151Z 20004KT 23/19 A3006 RMK A01 T02300190  RH  078%=      5-min Rain = 0
KTH1 111152Z 20004KT 23/19 A3006 RMK A01 T02300190  RH  078%=      5-min Rain = 0
KTH1 111153Z 20004KT 23/19 A3006 RMK A01 T02300190  RH  078%=      5-min Rain = 0
KTH1 111154Z 20004KT 23/19 A3006 RMK A01 T02300190  RH  078%=      5-min Rain = 0
KTH1 111155Z 20003KT 23/19 A3006 RMK A01 T02300190  RH  078%=      5-min Rain = 0
KTH1 111156Z 20004KT 23/19 A3006 RMK A01 T02290189  RH  078%=      5-min Rain = 0
KTH1 111157Z 20003KT 23/19 A3006 RMK A01 T02290189  RH  078%=      5-min Rain = 0
KTH1 111158Z 20004KT 23/19 A3006 RMK A01 T02290189  RH  078%=      5-min Rain = 0
KTH1 111159Z 20004KT 23/19 A3006 RMK A01 T02290188  RH  078%=      5-min Rain = 0
KTH1 111200Z 20004KT 23/19 A3006 RMK A01 T02290188  RH  078%=      5-min Rain = 0
KTH1 111201Z 20003KT 23/19 A3006 RMK A01 T02290188  RH  078%=      5-min Rain = 0
KTH1 111202Z 21004KT 23/19 A3006 RMK A01 T02290188  RH  078%=      5-min Rain = 0
KTH1 111203Z 21003KT 23/19 A3006 RMK A01 T02290188  RH  078%=      5-min Rain = 0
KTH1 111204Z 21004KT 23/19 A3006 RMK A01 T02290188  RH  078%=      5-min Rain = 0
KTH1 111205Z 21003KT 23/19 A3006 RMK A01 T02290188  RH  077%=      5-min Rain = 0
KTH1 111206Z 22003KT 23/19 A3006 RMK A01 T02290187  RH  077%=      5-min Rain = 0
KTH1 111207Z 22004KT 23/19 A3006 RMK A01 T02300188  RH  077%=      5-min Rain = 0
KTH1 111208Z 22004KT 23/19 A3006 RMK A01 T02300188  RH  077%=      5-min Rain = 0
KTH1 111209Z 22004KT 23/19 A3006 RMK A01 T02300189  RH  077%=      5-min Rain = 0
KTH1 111210Z 22003KT 23/19 A3006 RMK A01 T02300189  RH  077%=      5-min Rain = 0
KTH1 111211Z 23004KT 23/19 A3006 RMK A01 T02310189  RH  078%=      5-min Rain = 0
KTH1 111212Z 22004KT 23/19 A3006 RMK A01 T02310189  RH  077%=      5-min Rain = 0
KTH1 111213Z 22004KT 23/19 A3006 RMK A01 T02310189  RH  077%=      5-min Rain = 0
KTH1 111214Z 22005KT 23/19 A3006 RMK A01 T02310189  RH  077%=      5-min Rain = 0
KTH1 111215Z 21004KT 23/19 A3006 RMK A01 T02300188  RH  077%=      5-min Rain = 0
KTH1 111216Z 22004KT 23/19 A3006 RMK A01 T02300188  RH  077%=      5-min Rain = 0
KTH1 111217Z 22004KT 23/19 A3006 RMK A01 T02300188  RH  077%=      5-min Rain = 0
KTH1 111218Z 21004KT 23/19 A3006 RMK A01 T02300188  RH  077%=      5-min Rain = 0
KTH1 111219Z 22004KT 23/19 A3006 RMK A01 T02300188  RH  077%=      5-min Rain = 0
KTH1 111220Z 22005KT 23/19 A3007 RMK A01 T02300188  RH  077%=      5-min Rain = 0
KTH1 111221Z 22004KT 23/19 A3007 RMK A01 T02310187  RH  077%=      5-min Rain = 0
KTH1 111222Z 22004KT 23/19 A3007 RMK A01 T02310188  RH  077%=      5-min Rain = 0
KTH1 111223Z 22004KT 23/19 A3007 RMK A01 T02310188  RH  076%=      5-min Rain = 0
KTH1 111224Z 22004KT 23/19 A3007 RMK A01 T02310187  RH  076%=      5-min Rain = 0
KTH1 111225Z 22004KT 23/19 A3007 RMK A01 T02310187  RH  076%=      5-min Rain = 0
KTH1 111226Z 22004KT 23/19 A3007 RMK A01 T02320188  RH  076%=      5-min Rain = 0
KTH1 111227Z 22003KT 23/19 A3007 RMK A01 T02320188  RH  076%=      5-min Rain = 0
KTH1 111228Z 22003KT 23/19 A3007 RMK A01 T02320188  RH  076%=      5-min Rain = 0
KTH1 111229Z 22004KT 23/19 A3007 RMK A01 T02320187  RH  076%=      5-min Rain = 0
KTH1 111230Z 22005KT 23/19 A3007 RMK A01 T02330187  RH  075%=      5-min Rain = 0
KTH1 111231Z 22005KT 23/19 A3007 RMK A01 T02330186  RH  075%=      5-min Rain = 0
KTH1 111232Z 22005KT 23/19 A3007 RMK A01 T02340186  RH  074%=      5-min Rain = 0
KTH1 111233Z 22005KT 24/19 A3007 RMK A01 T02350186  RH  074%=      5-min Rain = 0
KTH1 111234Z 22005KT 24/19 A3007 RMK A01 T02350186  RH  074%=      5-min Rain = 0
KTH1 111235Z 21005KT 24/19 A3007 RMK A01 T02360185  RH  073%=      5-min Rain = 0
KTH1 111236Z 21005KT 24/19 A3007 RMK A01 T02370185  RH  073%=      5-min Rain = 0
KTH1 111237Z 21004KT 24/19 A3007 RMK A01 T02370185  RH  073%=      5-min Rain = 0
KTH1 111238Z 22004KT 24/19 A3007 RMK A01 T02370185  RH  072%=      5-min Rain = 0
KTH1 111239Z 21004KT 24/19 A3007 RMK A01 T02380185  RH  072%=      5-min Rain = 0
KTH1 111240Z 21005KT 24/19 A3007 RMK A01 T02380185  RH  072%=      5-min Rain = 0
KTH1 111241Z 21004KT 24/19 A3007 RMK A01 T02380185  RH  072%=      5-min Rain = 0
KTH1 111242Z 21005KT 24/19 A3007 RMK A01 T02380185  RH  072%=      5-min Rain = 0
KTH1 111243Z 21005KT 24/18 A3007 RMK A01 T02380184  RH  072%=      5-min Rain = 0
KTH1 111244Z 21005KT 24/18 A3007 RMK A01 T02380184  RH  072%=      5-min Rain = 0
KTH1 111245Z 21006KT 24/19 A3007 RMK A01 T02390185  RH  072%=      5-min Rain = 0
KTH1 111246Z 22005KT 24/19 A3007 RMK A01 T02390185  RH  072%=      5-min Rain = 0
KTH1 111247Z 21004KT 24/19 A3007 RMK A01 T02400186  RH  072%=      5-min Rain = 0
KTH1 111248Z 21005KT 24/19 A3007 RMK A01 T02390186  RH  072%=      5-min Rain = 0
KTH1 111249Z 20006KT 24/19 A3007 RMK A01 T02390185  RH  072%=      5-min Rain = 0
KTH1 111250Z 21005KT 24/19 A3007 RMK A01 T02400185  RH  072%=      5-min Rain = 0
KTH1 111251Z 21005KT 24/19 A3007 RMK A01 T02400185  RH  071%=      5-min Rain = 0
KTH1 111252Z 21006KT 24/19 A3008 RMK A01 T02410185  RH  071%=      5-min Rain = 0
KTH1 111253Z 22005KT 24/19 A3008 RMK A01 T02410186  RH  071%=      5-min Rain = 0
KTH1 111254Z 22005KT 24/19 A3008 RMK A01 T02420186  RH  071%=      5-min Rain = 0
KTH1 111255Z 21005KT 24/19 A3008 RMK A01 T02420186  RH  071%=      5-min Rain = 0
KTH1 111256Z 22005KT 24/19 A3008 RMK A01 T02420185  RH  071%=      5-min Rain = 0
KTH1 111257Z 22005KT 24/19 A3008 RMK A01 T02430186  RH  071%=      5-min Rain = 0
KTH1 111258Z 22005KT 24/19 A3008 RMK A01 T02430186  RH  070%=      5-min Rain = 0
KTH1 111259Z 23004KT 24/19 A3008 RMK A01 T02430187  RH  071%=      5-min Rain = 0
KTH1 111300Z 22005KT 24/19 A3008 RMK A01 T02430186  RH  070%=      5-min Rain = 0
KTH1 111301Z 23005KT 24/19 A3008 RMK A01 T02440185  RH  070%=      5-min Rain = 0
KTH1 111302Z 22006KT 25/19 A3008 RMK A01 T02450186  RH  070%=      5-min Rain = 0
KTH1 111303Z 22005KT 25/19 A3008 RMK A01 T02450186  RH  070%=      5-min Rain = 0
KTH1 111304Z 22005KT 25/19 A3008 RMK A01 T02450186  RH  069%=      5-min Rain = 0
KTH1 111305Z 22005KT 25/19 A3008 RMK A01 T02460186  RH  069%=      5-min Rain = 0
KTH1 111306Z 22005KT 25/19 A3008 RMK A01 T02460186  RH  069%=      5-min Rain = 0
KTH1 111307Z 23005KT 25/19 A3008 RMK A01 T02460186  RH  069%=      5-min Rain = 0
KTH1 111308Z 22006KT 25/19 A3008 RMK A01 T02460185  RH  069%=      5-min Rain = 0
KTH1 111309Z 22004KT 25/19 A3008 RMK A01 T02470185  RH  069%=      5-min Rain = 0
KTH1 111310Z 22004KT 25/19 A3008 RMK A01 T02470187  RH  069%=      5-min Rain = 0
KTH1 111311Z 22005KT 25/19 A3008 RMK A01 T02480187  RH  069%=      5-min Rain = 0
KTH1 111312Z 22005KT 25/19 A3008 RMK A01 T02480187  RH  068%=      5-min Rain = 0
KTH1 111313Z 22005KT 25/19 A3008 RMK A01 T02490186  RH  068%=      5-min Rain = 0
KTH1 111314Z 23005KT 25/19 A3008 RMK A01 T02500187  RH  068%=      5-min Rain = 0
KTH1 111315Z 22005KT 25/19 A3008 RMK A01 T02510188  RH  068%=      5-min Rain = 0
KTH1 111316Z 23006KT 25/19 A3008 RMK A01 T02520187  RH  067%=      5-min Rain = 0
KTH1 111317Z 23006KT 25/19 A3008 RMK A01 T02530187  RH  067%=      5-min Rain = 0
KTH1 111318Z 23006KT 25/19 A3008 RMK A01 T02530187  RH  067%=      5-min Rain = 0
KTH1 111319Z 23005KT 26/19 A3008 RMK A01 T02550187  RH  066%=      5-min Rain = 0
KTH1 111320Z 23007KT 26/19 A3008 RMK A01 T02560187  RH  066%=      5-min Rain = 0
KTH1 111321Z 23007KT 26/19 A3008 RMK A01 T02570187  RH  065%=      5-min Rain = 0
KTH1 111322Z 23005KT 26/19 A3008 RMK A01 T02580188  RH  065%=      5-min Rain = 0
KTH1 111323Z 23005KT 26/19 A3008 RMK A01 T02590188  RH  065%=      5-min Rain = 0
KTH1 111324Z 23008KT 26/19 A3008 RMK A01 T02600187  RH  064%=      5-min Rain = 0
KTH1 111325Z 23006KT 26/19 A3008 RMK A01 T02600188  RH  064%=      5-min Rain = 0
KTH1 111326Z 23006KT 26/19 A3008 RMK A01 T02610187  RH  064%=      5-min Rain = 0
KTH1 111327Z 23005KT 26/19 A3008 RMK A01 T02610186  RH  064%=      5-min Rain = 0
KTH1 111328Z 23008KT 26/19 A3008 RMK A01 T02610186  RH  063%=      5-min Rain = 0
KTH1 111329Z 23009KT 26/19 A3008 RMK A01 T02610185  RH  063%=      5-min Rain = 0
KTH1 111330Z 23008KT 26/19 A3008 RMK A01 T02620185  RH  063%=      5-min Rain = 0
KTH1 111331Z 23007KT 26/19 A3008 RMK A01 T02620185  RH  063%=      5-min Rain = 0
KTH1 111332Z 22006KT 26/19 A3009 RMK A01 T02630186  RH  063%=      5-min Rain = 0
KTH1 111333Z 23005KT 26/19 A3009 RMK A01 T02640187  RH  063%=      5-min Rain = 0
KTH1 111334Z 23007KT 27/19 A3009 RMK A01 T02650187  RH  062%=      5-min Rain = 0
KTH1 111335Z 24006KT 27/19 A3009 RMK A01 T02660188  RH  062%=      5-min Rain = 0
KTH1 111336Z 23008KT 27/19 A3009 RMK A01 T02670187  RH  061%=      5-min Rain = 0
KTH1 111337Z 23006KT 27/19 A3009 RMK A01 T02680188  RH  061%=      5-min Rain = 0
KTH1 111338Z 22005KT 27/19 A3009 RMK A01 T02690188  RH  061%=      5-min Rain = 0
KTH1 111339Z 23006KT 27/19 A3009 RMK A01 T02710187  RH  060%=      5-min Rain = 0
KTH1 111340Z 22006KT 27/19 A3009 RMK A01 T02720186  RH  059%=      5-min Rain = 0
KTH1 111341Z 22005KT 27/19 A3009 RMK A01 T02720188  RH  060%=      5-min Rain = 0
KTH1 111342Z 22007KT 27/19 A3009 RMK A01 T02730186  RH  059%=      5-min Rain = 0
KTH1 111343Z 23010KT 27/18 A3009 RMK A01 T02730184  RH  058%=      5-min Rain = 0
KTH1 111344Z 23009KT 27/18 A3009 RMK A01 T02720184  RH  058%=      5-min Rain = 0
KTH1 111345Z 24007KT 27/19 A3009 RMK A01 T02710185  RH  059%=      5-min Rain = 0
KTH1 111346Z 23006KT 27/19 A3009 RMK A01 T02710187  RH  060%=      5-min Rain = 0
KTH1 111347Z 23008KT 27/19 A3009 RMK A01 T02710185  RH  060%=      5-min Rain = 0
KTH1 111348Z 24006KT 27/19 A3009 RMK A01 T02710186  RH  060%=      5-min Rain = 0
KTH1 111349Z 23006KT 27/19 A3009 RMK A01 T02710187  RH  060%=      5-min Rain = 0
KTH1 111350Z 24005KT 27/19 A3009 RMK A01 T02710187  RH  060%=      5-min Rain = 0
KTH1 111351Z 23006KT 27/19 A3009 RMK A01 T02730188  RH  060%=      5-min Rain = 0
KTH1 111352Z 24007KT 27/19 A3009 RMK A01 T02730187  RH  059%=      5-min Rain = 0
KTH1 111353Z 23006KT 27/19 A3009 RMK A01 T02730187  RH  059%=      5-min Rain = 0
KTH1 111354Z 23008KT 27/19 A3009 RMK A01 T02740186  RH  059%=      5-min Rain = 0
KTH1 111355Z 23006KT 27/19 A3009 RMK A01 T02740187  RH  059%=      5-min Rain = 0
KTH1 111356Z 23005KT 27/19 A3009 RMK A01 T02740189  RH  060%=      5-min Rain = 0
KTH1 111357Z 23007KT 27/19 A3009 RMK A01 T02740187  RH  059%=      5-min Rain = 0
KTH1 111358Z 24008KT 27/19 A3009 RMK A01 T02740188  RH  059%=      5-min Rain = 0
KTH1 111359Z 23008KT 27/19 A3009 RMK A01 T02740186  RH  059%=      5-min Rain = 0
KTH1 111400Z 24006KT 27/19 A3009 RMK A01 T02730189  RH  060%=      5-min Rain = 0
KTH1 111401Z 23008KT 27/19 A3009 RMK A01 T02730189  RH  060%=      5-min Rain = 0
KTH1 111402Z 24006KT 27/19 A3009 RMK A01 T02730188  RH  060%=      5-min Rain = 0
KTH1 111403Z 23007KT 27/19 A3009 RMK A01 T02740189  RH  060%=      5-min Rain = 0
KTH1 111404Z 24006KT 27/19 A3009 RMK A01 T02740189  RH  060%=      5-min Rain = 0
KTH1 111405Z 24006KT 27/19 A3009 RMK A01 T02740190  RH  060%=      5-min Rain = 0
KTH1 111406Z 23006KT 27/19 A3009 RMK A01 T02740189  RH  060%=      5-min Rain = 0
KTH1 111407Z 24007KT 27/19 A3009 RMK A01 T02740189  RH  060%=      5-min Rain = 0
KTH1 111408Z 24006KT 28/19 A3009 RMK A01 T02750189  RH  059%=      5-min Rain = 0
KTH1 111409Z 24006KT 28/19 A3009 RMK A01 T02760188  RH  059%=      5-min Rain = 0
KTH1 111410Z 24006KT 28/19 A3009 RMK A01 T02770189  RH  059%=      5-min Rain = 0
KTH1 111411Z 23007KT 28/19 A3009 RMK A01 T02780188  RH  058%=      5-min Rain = 0
KTH1 111412Z 23010KT 28/19 A3009 RMK A01 T02780188  RH  058%=      5-min Rain = 0
KTH1 111413Z 23006KT 28/19 A3009 RMK A01 T02770188  RH  058%=      5-min Rain = 0
KTH1 111414Z 25007KT 28/19 A3009 RMK A01 T02770189  RH  059%=      5-min Rain = 0
KTH1 111415Z 23009KT 28/19 A3009 RMK A01 T02770189  RH  059%=      5-min Rain = 0
KTH1 111416Z 24009KT 28/19 A3009 RMK A01 T02770189  RH  059%=      5-min Rain = 0
KTH1 111417Z 24010KT 28/19 A3009 RMK A01 T02780190  RH  059%=      5-min Rain = 0
KTH1 111418Z 24008KT 28/19 A3009 RMK A01 T02790191  RH  059%=      5-min Rain = 0
KTH1 111419Z 24006KT 28/19 A3009 RMK A01 T02810194  RH  059%=      5-min Rain = 0
KTH1 111420Z 24007KT 28/19 A3009 RMK A01 T02830194  RH  059%=      5-min Rain = 0
KTH1 111421Z 25010KT 28/19 A3009 RMK A01 T02840194  RH  058%=      5-min Rain = 0
KTH1 111422Z 24008KT 29/19 A3009 RMK A01 T02850193  RH  058%=      5-min Rain = 0
KTH1 111423Z 24008KT 28/19 A3009 RMK A01 T02840194  RH  058%=      5-min Rain = 0
KTH1 111424Z 23007KT 28/19 A3009 RMK A01 T02840194  RH  058%=      5-min Rain = 0
KTH1 111425Z 24007KT 28/19 A3009 RMK A01 T02830194  RH  058%=      5-min Rain = 0
KTH1 111426Z 23008KT 28/19 A3009 RMK A01 T02830193  RH  058%=      5-min Rain = 0
KTH1 111427Z 24008KT 28/19 A3009 RMK A01 T02820190  RH  057%=      5-min Rain = 0
KTH1 111428Z 24009KT 28/19 A3009 RMK A01 T02810192  RH  058%=      5-min Rain = 0
KTH1 111429Z 24008KT 28/19 A3009 RMK A01 T02800190  RH  058%=      5-min Rain = 0
KTH1 111430Z 23006KT 28/19 A3009 RMK A01 T02790193  RH  059%=      5-min Rain = 0
KTH1 111431Z 24008KT 28/19 A3009 RMK A01 T02790192  RH  059%=      5-min Rain = 0
KTH1 111432Z 24007KT 28/19 A3009 RMK A01 T02800192  RH  059%=      5-min Rain = 0
KTH1 111433Z 23007KT 28/19 A3009 RMK A01 T02810191  RH  058%=      5-min Rain = 0
KTH1 111434Z 24008KT 28/19 A3009 RMK A01 T02820191  RH  058%=      5-min Rain = 0
KTH1 111435Z 24008KT 28/19 A3009 RMK A01 T02840193  RH  058%=      5-min Rain = 0
KTH1 111436Z 24008KT 29/20 A3009 RMK A01 T02860195  RH  058%=      5-min Rain = 0
KTH1 111437Z 24007KT 29/19 A3009 RMK A01 T02880194  RH  057%=      5-min Rain = 0
KTH1 111438Z 25008KT 29/20 A3009 RMK A01 T02890196  RH  057%=      5-min Rain = 0
KTH1 111439Z 24008KT 29/20 A3009 RMK A01 T02890196  RH  057%=      5-min Rain = 0
KTH1 111440Z 23006KT 29/20 A3009 RMK A01 T02890195  RH  057%=      5-min Rain = 0
KTH1 111441Z 24007KT 29/19 A3009 RMK A01 T02900193  RH  056%=      5-min Rain = 0
KTH1 111442Z 25008KT 29/19 A3009 RMK A01 T02900194  RH  056%=      5-min Rain = 0
KTH1 111443Z 26009KT 29/20 A3009 RMK A01 T02910196  RH  057%=      5-min Rain = 0
KTH1 111444Z 25009KT 29/20 A3009 RMK A01 T02900199  RH  058%=      5-min Rain = 0
KTH1 111445Z 24009KT 29/20 A3009 RMK A01 T02910200  RH  058%=      5-min Rain = 0
KTH1 111446Z 25012KT 29/20 A3009 RMK A01 T02910197  RH  057%=      5-min Rain = 0
KTH1 111447Z 25011KT 29/20 A3009 RMK A01 T02910196  RH  057%=      5-min Rain = 0
KTH1 111448Z 24009KT 29/20 A3009 RMK A01 T02900199  RH  058%=      5-min Rain = 0
KTH1 111449Z 24008KT 29/20 A3009 RMK A01 T02900197  RH  057%=      5-min Rain = 0
KTH1 111450Z 24010G16KT 29/20 A3009 RMK A01 T02910196  RH  056%=      5-min Rain = 0
KTH1 111451Z 25011KT 29/19 A3009 RMK A01 T02910193  RH  056%=      5-min Rain = 0
KTH1 111452Z 25010KT 29/20 A3009 RMK A01 T02900198  RH  057%=      5-min Rain = 0
KTH1 111453Z 24011KT 29/19 A3009 RMK A01 T02900194  RH  056%=      5-min Rain = 0
KTH1 111454Z 24010KT 29/19 A3009 RMK A01 T02910193  RH  056%=      5-min Rain = 0
KTH1 111455Z 23009KT 29/19 A3009 RMK A01 T02900192  RH  055%=      5-min Rain = 0
KTH1 111456Z 24008KT 29/19 A3009 RMK A01 T02910192  RH  055%=      5-min Rain = 0
KTH1 111457Z 26012KT 29/20 A3009 RMK A01 T02920195  RH  056%=      5-min Rain = 0
KTH1 111458Z 24012KT 29/20 A3009 RMK A01 T02930198  RH  056%=      5-min Rain = 0
KTH1 111459Z 25012KT 29/20 A3009 RMK A01 T02940198  RH  056%=      5-min Rain = 0
KTH1 111500Z 26011KT 29/20 A3009 RMK A01 T02940201  RH  057%=      5-min Rain = 0
KTH1 111501Z 25009KT 30/20 A3009 RMK A01 T02950198  RH  056%=      5-min Rain = 0
KTH1 111502Z 25006KT 30/20 A3009 RMK A01 T02960202  RH  057%=      5-min Rain = 0
KTH1 111503Z 25006KT 30/20 A3009 RMK A01 T02970199  RH  056%=      5-min Rain = 0
KTH1 111504Z 24006KT 30/20 A3009 RMK A01 T02980198  RH  055%=      5-min Rain = 0
KTH1 111505Z 22008KT 30/20 A3009 RMK A01 T03010196  RH  054%=      5-min Rain = 0
KTH1 111506Z 22008KT 30/19 A3009 RMK A01 T03030194  RH  052%=      5-min Rain = 0
KTH1 111507Z 24010KT 31/20 A3009 RMK A01 T03050195  RH  052%=      5-min Rain = 0
KTH1 111508Z 25010KT 31/20 A3009 RMK A01 T03060195  RH  052%=      5-min Rain = 0
KTH1 111509Z 25009KT 31/20 A3009 RMK A01 T03060201  RH  053%=      5-min Rain = 0
KTH1 111510Z 26010KT 31/21 A3009 RMK A01 T03070206  RH  055%=      5-min Rain = 0
KTH1 111511Z 24007KT 31/21 A3009 RMK A01 T03080205  RH  054%=      5-min Rain = 0
KTH1 111512Z 24008KT 31/20 A3009 RMK A01 T03100201  RH  052%=      5-min Rain = 0
KTH1 111513Z 22008KT 31/20 A3009 RMK A01 T03100196  RH  051%=      5-min Rain = 0
KTH1 111514Z 23006KT 31/20 A3009 RMK A01 T03090196  RH  051%=      5-min Rain = 0
KTH1 111515Z 24011G16KT 31/20 A3009 RMK A01 T03090195  RH  051%=      5-min Rain = 0
KTH1 111516Z 25013KT 31/20 A3009 RMK A01 T03080198  RH  052%=      5-min Rain = 0
KTH1 111517Z 26013KT 31/20 A3009 RMK A01 T03060197  RH  052%=      5-min Rain = 0
KTH1 111518Z 26015KT 31/20 A3009 RMK A01 T03050200  RH  053%=      5-min Rain = 0
KTH1 111519Z 25011KT 31/20 A3009 RMK A01 T03050203  RH  054%=      5-min Rain = 0
KTH1 111520Z 25013KT 31/20 A3009 RMK A01 T03050202  RH  054%=      5-min Rain = 0
KTH1 111521Z 26010KT 31/20 A3009 RMK A01 T03050204  RH  055%=      5-min Rain = 0
KTH1 111522Z 25012KT 31/20 A3009 RMK A01 T03060204  RH  055%=      5-min Rain = 0
KTH1 111523Z 24012KT 31/20 A3009 RMK A01 T03060197  RH  052%=      5-min Rain = 0
KTH1 111524Z 25012KT 31/20 A3009 RMK A01 T03050198  RH  053%=      5-min Rain = 0
KTH1 111525Z 25012KT 30/20 A3009 RMK A01 T03040199  RH  053%=      5-min Rain = 0
KTH1 111526Z 25012KT 30/20 A3009 RMK A01 T03030201  RH  054%=      5-min Rain = 0
KTH1 111527Z 25010KT 30/20 A3009 RMK A01 T03030198  RH  053%=      5-min Rain = 0
KTH1 111528Z 24011KT 30/20 A3009 RMK A01 T03030198  RH  053%=      5-min Rain = 0
KTH1 111529Z 24010KT 30/20 A3009 RMK A01 T03040197  RH  053%=      5-min Rain = 0
KTH1 111530Z 24009KT 30/19 A3009 RMK A01 T03040194  RH  052%=      5-min Rain = 0
KTH1 111531Z 24010KT 30/20 A3009 RMK A01 T03040195  RH  052%=      5-min Rain = 0
KTH1 111532Z 25011KT 31/20 A3009 RMK A01 T03050198  RH  053%=      5-min Rain = 0
KTH1 111533Z 25009KT 31/20 A3009 RMK A01 T03050200  RH  054%=      5-min Rain = 0
KTH1 111534Z 25011KT 31/20 A3009 RMK A01 T03060200  RH  053%=      5-min Rain = 0
KTH1 111535Z 25011KT 31/20 A3009 RMK A01 T03080203  RH  054%=      5-min Rain = 0
KTH1 111536Z 25011KT 31/20 A3009 RMK A01 T03080201  RH  053%=      5-min Rain = 0
KTH1 111537Z 26010KT 31/20 A3009 RMK A01 T03080200  RH  053%=      5-min Rain = 0
KTH1 111538Z 27011KT 31/20 A3009 RMK A01 T03080200  RH  052%=      5-min Rain = 0
KTH1 111539Z 26010KT 31/20 A3009 RMK A01 T03090200  RH  052%=      5-min Rain = 0
KTH1 111540Z 27008KT 31/20 A3009 RMK A01 T03100200  RH  052%=      5-min Rain = 0
KTH1 111541Z 26012KT 31/20 A3009 RMK A01 T03100199  RH  052%=      5-min Rain = 0
KTH1 111542Z 27012KT 31/20 A3009 RMK A01 T03110200  RH  052%=      5-min Rain = 0
KTH1 111543Z 27005G10KT 31/20 A3009 RMK A01 T03110201  RH  052%=      5-min Rain = 0
KTH1 111544Z 27008KT 31/20 A3009 RMK A01 T03120203  RH  052%=      5-min Rain = 0
KTH1 111545Z 26011KT 31/20 A3009 RMK A01 T03120201  RH  052%=      5-min Rain = 0
KTH1 111546Z 26010KT 31/20 A3009 RMK A01 T03110200  RH  052%=      5-min Rain = 0
KTH1 111547Z 26010KT 31/20 A3009 RMK A01 T03100202  RH  053%=      5-min Rain = 0
KTH1 111548Z 26013KT 31/20 A3009 RMK A01 T03080201  RH  053%=      5-min Rain = 0
KTH1 111549Z 27009G14KT 31/20 A3009 RMK A01 T03060202  RH  054%=      5-min Rain = 0
KTH1 111550Z 27009KT 31/20 A3009 RMK A01 T03060200  RH  053%=      5-min Rain = 0
KTH1 111551Z 26008KT 31/20 A3009 RMK A01 T03060199  RH  053%=      5-min Rain = 0
KTH1 111552Z 26007G12KT 31/20 A3009 RMK A01 T03060202  RH  054%=      5-min Rain = 0
KTH1 111553Z 27009KT 31/20 A3009 RMK A01 T03070203  RH  054%=      5-min Rain = 0
KTH1 111554Z 26009KT 31/20 A3009 RMK A01 T03070200  RH  053%=      5-min Rain = 0
KTH1 111555Z 27008KT 31/20 A3009 RMK A01 T03080200  RH  052%=      5-min Rain = 0
KTH1 111556Z 27005KT 31/20 A3009 RMK A01 T03080202  RH  053%=      5-min Rain = 0
KTH1 111557Z 26009KT 31/20 A3009 RMK A01 T03080203  RH  053%=      5-min Rain = 0
KTH1 111558Z 26009KT 31/20 A3009 RMK A01 T03080199  RH  052%=      5-min Rain = 0
KTH1 111559Z 26010KT 31/20 A3009 RMK A01 T03090200  RH  052%=      5-min Rain = 0
KTH1 111600Z 26009KT 31/21 A3009 RMK A01 T03090205  RH  054%=      5-min Rain = 0
KTH1 111601Z 25008KT 31/21 A3009 RMK A01 T03090207  RH  055%=      5-min Rain = 0
KTH1 111602Z 26009KT 31/21 A3009 RMK A01 T03070206  RH  055%=      5-min Rain = 0
KTH1 111603Z 26007KT 31/20 A3009 RMK A01 T03060201  RH  053%=      5-min Rain = 0
KTH1 111604Z 25010KT 31/20 A3009 RMK A01 T03070201  RH  053%=      5-min Rain = 0
KTH1 111605Z 26009KT 31/20 A3009 RMK A01 T03060200  RH  053%=      5-min Rain = 0
KTH1 111606Z 26009KT 31/20 A3009 RMK A01 T03060203  RH  054%=      5-min Rain = 0
KTH1 111607Z 26008KT 31/20 A3009 RMK A01 T03060202  RH  054%=      5-min Rain = 0
KTH1 111608Z 26007KT 31/21 A3009 RMK A01 T03080205  RH  054%=      5-min Rain = 0
KTH1 111609Z 24008KT 31/20 A3009 RMK A01 T03110203  RH  053%=      5-min Rain = 0
KTH1 111610Z 24010KT 31/20 A3009 RMK A01 T03140199  RH  050%=      5-min Rain = 0
KTH1 111611Z 25011KT 32/20 A3009 RMK A01 T03170199  RH  050%=      5-min Rain = 0
KTH1 111612Z 25010KT 32/20 A3009 RMK A01 T03170200  RH  050%=      5-min Rain = 0
KTH1 111613Z 25009KT 32/20 A3009 RMK A01 T03150198  RH  050%=      5-min Rain = 0
KTH1 111614Z 25008KT 31/20 A3009 RMK A01 T03120196  RH  050%=      5-min Rain = 0
KTH1 111615Z 25007KT 31/20 A3009 RMK A01 T03110197  RH  051%=      5-min Rain = 0
KTH1 111616Z 26008KT 31/20 A3009 RMK A01 T03100199  RH  052%=      5-min Rain = 0
KTH1 111617Z 25010KT 31/20 A3009 RMK A01 T03100198  RH  052%=      5-min Rain = 0
KTH1 111618Z 25009KT 31/20 A3009 RMK A01 T03100196  RH  051%=      5-min Rain = 0
KTH1 111619Z 25008KT 31/20 A3009 RMK A01 T03100198  RH  051%=      5-min Rain = 0
KTH1 111620Z 25007KT 31/19 A3009 RMK A01 T03100194  RH  050%=      5-min Rain = 0
KTH1 111621Z 25008KT 31/20 A3009 RMK A01 T03120195  RH  050%=      5-min Rain = 0
KTH1 111622Z 25007KT 31/20 A3009 RMK A01 T03130196  RH  050%=      5-min Rain = 0
KTH1 111623Z 24006KT 31/20 A3009 RMK A01 T03140196  RH  050%=      5-min Rain = 0
KTH1 111624Z 22006KT 32/19 A3009 RMK A01 T03150194  RH  049%=      5-min Rain = 0
KTH1 111625Z 23004KT 32/19 A3009 RMK A01 T03170193  RH  048%=      5-min Rain = 0
KTH1 111626Z 25009KT 32/19 A3009 RMK A01 T03200194  RH  048%=      5-min Rain = 0
KTH1 111627Z 25006KT 32/19 A3009 RMK A01 T03200192  RH  047%=      5-min Rain = 0
KTH1 111628Z 25009KT 32/19 A3009 RMK A01 T03190192  RH  047%=      5-min Rain = 0
KTH1 111629Z 25007KT 32/20 A3008 RMK A01 T03180197  RH  049%=      5-min Rain = 0
KTH1 111630Z 25006KT 32/20 A3008 RMK A01 T03190199  RH  049%=      5-min Rain = 0
KTH1 111631Z 26006KT 32/20 A3008 RMK A01 T03210200  RH  049%=      5-min Rain = 0
KTH1 111632Z 24006KT 32/20 A3008 RMK A01 T03230198  RH  048%=      5-min Rain = 0
KTH1 111633Z 23007KT 33/19 A3008 RMK A01 T03250189  RH  045%=      5-min Rain = 0
KTH1 111634Z 23007KT 33/18 A3008 RMK A01 T03250184  RH  043%=      5-min Rain = 0
KTH1 111635Z 23008KT 33/18 A3008 RMK A01 T03260181  RH  042%=      5-min Rain = 0
KTH1 111636Z 22005KT 33/18 A3008 RMK A01 T03260179  RH  042%=      5-min Rain = 0
KTH1 111637Z 25007KT 33/18 A3008 RMK A01 T03270181  RH  042%=      5-min Rain = 0
KTH1 111638Z 23009KT 33/19 A3008 RMK A01 T03280188  RH  044%=      5-min Rain = 0
KTH1 111639Z 23007KT 33/18 A3008 RMK A01 T03270184  RH  043%=      5-min Rain = 0
KTH1 111640Z 24008KT 33/18 A3008 RMK A01 T03270184  RH  043%=      5-min Rain = 0
KTH1 111641Z 24006KT 33/19 A3008 RMK A01 T03270185  RH  043%=      5-min Rain = 0
KTH1 111642Z 26007KT 33/19 A3008 RMK A01 T03280190  RH  044%=      5-min Rain = 0
KTH1 111643Z 25009KT 33/19 A3008 RMK A01 T03290188  RH  043%=      5-min Rain = 0
KTH1 111644Z 24008KT 33/19 A3008 RMK A01 T03290189  RH  044%=      5-min Rain = 0
KTH1 111645Z 24007KT 33/18 A3008 RMK A01 T03290184  RH  042%=      5-min Rain = 0
KTH1 111646Z 24007KT 33/19 A3008 RMK A01 T03290186  RH  043%=      5-min Rain = 0
KTH1 111647Z 24007KT 33/19 A3008 RMK A01 T03290185  RH  042%=      5-min Rain = 0
KTH1 111648Z 25009KT 33/19 A3008 RMK A01 T03290185  RH  043%=      5-min Rain = 0
KTH1 111649Z 26005KT 33/19 A3008 RMK A01 T03280187  RH  043%=      5-min Rain = 0
KTH1 111650Z 24008KT 33/19 A3008 RMK A01 T03270189  RH  044%=      5-min Rain = 0
KTH1 111651Z 25007KT 33/18 A3008 RMK A01 T03280184  RH  042%=      5-min Rain = 0
KTH1 111652Z 25007KT 33/19 A3008 RMK A01 T03290190  RH  044%=      5-min Rain = 0
KTH1 111653Z 26009KT 33/19 A3008 RMK A01 T03310193  RH  044%=      5-min Rain = 0
KTH1 111654Z 27006KT 33/20 A3008 RMK A01 T03320197  RH  045%=      5-min Rain = 0
KTH1 111655Z 24005KT 34/19 A3008 RMK A01 T03350190  RH  042%=      5-min Rain = 0
KTH1 111656Z 26007KT 34/19 A3008 RMK A01 T03360187  RH  041%=      5-min Rain = 0
KTH1 111657Z 25009KT 34/19 A3008 RMK A01 T03370189  RH  042%=      5-min Rain = 0
KTH1 111658Z 25007KT 33/18 A3008 RMK A01 T03340181  RH  040%=      5-min Rain = 0
KTH1 111659Z 25007KT 33/19 A3008 RMK A01 T03320186  RH  042%=      5-min Rain = 0
KTH1 111700Z 24005KT 33/18 A3008 RMK A01 T03320183  RH  041%=      5-min Rain = 0
KTH1 111701Z 24006KT 33/18 A3008 RMK A01 T03320180  RH  040%=      5-min Rain = 0
KTH1 111702Z 25004KT 33/18 A3008 RMK A01 T03330179  RH  040%=      5-min Rain = 0
KTH1 111703Z 26007KT 33/18 A3008 RMK A01 T03340180  RH  040%=      5-min Rain = 0
KTH1 111704Z 23007KT 34/18 A3008 RMK A01 T03350181  RH  040%=      5-min Rain = 0
KTH1 111705Z 22006KT 34/18 A3008 RMK A01 T03360176  RH  039%=      5-min Rain = 0
KTH1 111706Z 26007KT 34/18 A3008 RMK A01 T03360178  RH  039%=      5-min Rain = 0
KTH1 111707Z 26006KT 34/18 A3008 RMK A01 T03360176  RH  039%=      5-min Rain = 0
KTH1 111708Z 26007KT 34/18 A3008 RMK A01 T03350184  RH  041%=      5-min Rain = 0
KTH1 111709Z 26006KT 34/18 A3008 RMK A01 T03370178  RH  039%=      5-min Rain = 0
KTH1 111710Z 27004KT 34/18 A3008 RMK A01 T03380181  RH  040%=      5-min Rain = 0
KTH1 111711Z 28003KT 34/18 A3008 RMK A01 T03390177  RH  038%=      5-min Rain = 0
KTH1 111712Z 32002KT 34/18 A3008 RMK A01 T03400175  RH  038%=      5-min Rain = 0
KTH1 111713Z 32003KT 34/17 A3008 RMK A01 T03400174  RH  037%=      5-min Rain = 0
KTH1 111714Z 33003KT 34/18 A3008 RMK A01 T03390176  RH  038%=      5-min Rain = 0
KTH1 111715Z 34002KT 34/17 A3008 RMK A01 T03390174  RH  038%=      5-min Rain = 0
KTH1 111716Z 26001KT 34/18 A3008 RMK A01 T03400175  RH  038%=      5-min Rain = 0
KTH1 111717Z 25001KT 34/18 A3008 RMK A01 T03410178  RH  038%=      5-min Rain = 0
KTH1 111718Z 24006KT 34/18 A3008 RMK A01 T03410181  RH  039%=      5-min Rain = 0
KTH1 111719Z 26005KT 34/18 A3008 RMK A01 T03400182  RH  039%=      5-min Rain = 0
KTH1 111720Z 25003KT 34/18 A3007 RMK A01 T03390180  RH  039%=      5-min Rain = 0
KTH1 111721Z 23006KT 34/18 A3007 RMK A01 T03380180  RH  039%=      5-min Rain = 0
KTH1 111722Z 22005KT 34/18 A3007 RMK A01 T03390181  RH  039%=      5-min Rain = 0
KTH1 111723Z 25004KT 34/18 A3007 RMK A01 T03400181  RH  039%=      5-min Rain = 0
KTH1 111724Z 26004KT 34/18 A3007 RMK A01 T03400181  RH  039%=      5-min Rain = 0
KTH1 111725Z 25006KT 34/18 A3007 RMK A01 T03400183  RH  039%=      5-min Rain = 0
KTH1 111726Z 25007KT 34/18 A3007 RMK A01 T03400182  RH  039%=      5-min Rain = 0
KTH1 111727Z 24006KT 34/18 A3007 RMK A01 T03400183  RH  039%=      5-min Rain = 0
KTH1 111728Z 26006KT 34/18 A3007 RMK A01 T03410181  RH  039%=      5-min Rain = 0
KTH1 111729Z 25003KT 34/18 A3007 RMK A01 T03420178  RH  038%=      5-min Rain = 0
KTH1 111730Z 28003KT 34/18 A3007 RMK A01 T03430178  RH  038%=      5-min Rain = 0
KTH1 111731Z 26003KT 34/18 A3007 RMK A01 T03440179  RH  038%=      5-min Rain = 0
KTH1 111732Z 26003KT 35/18 A3007 RMK A01 T03460180  RH  037%=      5-min Rain = 0
KTH1 111733Z 21005G10KT 35/18 A3007 RMK A01 T03470180  RH  037%=      5-min Rain = 0
KTH1 111734Z 20007KT 35/18 A3007 RMK A01 T03490177  RH  036%=      5-min Rain = 0
KTH1 111735Z 21006KT 35/18 A3007 RMK A01 T03510176  RH  036%=      5-min Rain = 0
KTH1 111736Z 23006KT 35/18 A3007 RMK A01 T03510178  RH  036%=      5-min Rain = 0
KTH1 111737Z 19003KT 35/18 A3007 RMK A01 T03500180  RH  037%=      5-min Rain = 0
KTH1 111738Z 24003KT 35/18 A3007 RMK A01 T03500179  RH  037%=      5-min Rain = 0
KTH1 111739Z 26005KT 35/18 A3007 RMK A01 T03500182  RH  037%=      5-min Rain = 0
KTH1 111740Z 25008KT 35/18 A3007 RMK A01 T03500181  RH  037%=      5-min Rain = 0
KTH1 111741Z 23006KT 35/18 A3007 RMK A01 T03490178  RH  037%=      5-min Rain = 0
KTH1 111742Z 26003KT 35/18 A3007 RMK A01 T03460177  RH  037%=      5-min Rain = 0
KTH1 111743Z 32005KT 35/18 A3007 RMK A01 T03460177  RH  037%=      5-min Rain = 0
KTH1 111744Z 33004KT 35/18 A3006 RMK A01 T03450176  RH  037%=      5-min Rain = 0
KTH1 111745Z 34002KT 35/18 A3006 RMK A01 T03460179  RH  037%=      5-min Rain = 0
KTH1 111746Z 15002KT 35/18 A3006 RMK A01 T03510181  RH  037%=      5-min Rain = 0
KTH1 111747Z 12004KT 36/18 A3007 RMK A01 T03550178  RH  035%=      5-min Rain = 0
KTH1 111748Z 11006KT 36/18 A3006 RMK A01 T03560177  RH  035%=      5-min Rain = 0
KTH1 111749Z 15008KT 36/18 A3006 RMK A01 T03580175  RH  034%=      5-min Rain = 0
KTH1 111750Z 22006KT 36/18 A3006 RMK A01 T03610180  RH  035%=      5-min Rain = 0
KTH1 111751Z 21003KT 36/18 A3006 RMK A01 T03610183  RH  035%=      5-min Rain = 0
KTH1 111752Z 18005KT 36/18 A3006 RMK A01 T03600175  RH  033%=      5-min Rain = 0
KTH1 111753Z 18004KT 36/17 A3006 RMK A01 T03600173  RH  033%=      5-min Rain = 0
KTH1 111754Z 16003KT 36/17 A3006 RMK A01 T03630171  RH  032%=      5-min Rain = 0
KTH1 111755Z 17004KT 36/17 A3006 RMK A01 T03640171  RH  032%=      5-min Rain = 0
KTH1 111756Z 14005KT 37/17 A3006 RMK A01 T03670171  RH  031%=      5-min Rain = 0
KTH1 111757Z 12008KT 37/17 A3006 RMK A01 T03680167  RH  031%=      5-min Rain = 0
KTH1 111758Z 12004KT 37/16 A3006 RMK A01 T03670164  RH  030%=      5-min Rain = 0
KTH1 111759Z 10002KT 37/16 A3006 RMK A01 T03650164  RH  030%=      5-min Rain = 0
KTH1 111800Z 07002KT 36/17 A3006 RMK A01 T03640165  RH  031%=      5-min Rain = 0
KTH1 111801Z 04003KT 36/16 A3006 RMK A01 T03610164  RH  031%=      5-min Rain = 0
KTH1 111802Z 03002KT 36/17 A3006 RMK A01 T03590166  RH  032%=      5-min Rain = 0
KTH1 111803Z 33001KT 36/17 A3006 RMK A01 T03600174  RH  034%=      5-min Rain = 0
KTH1 111804Z 00002KT 36/18 A3006 RMK A01 T03600176  RH  034%=      5-min Rain = 0
KTH1 111805Z 33002KT 36/17 A3006 RMK A01 T03600173  RH  033%=      5-min Rain = 0
KTH1 111806Z 30002KT 36/18 A3006 RMK A01 T03600178  RH  034%=      5-min Rain = 0
KTH1 111807Z 28001KT 36/18 A3006 RMK A01 T03600181  RH  035%=      5-min Rain = 0
KTH1 111808Z 26001KT 36/19 A3006 RMK A01 T03600186  RH  036%=      5-min Rain = 0
KTH1 111809Z 17000KT 36/18 A3006 RMK A01 T03580180  RH  035%=      5-min Rain = 0
KTH1 111810Z 23002KT 36/18 A3006 RMK A01 T03560178  RH  035%=      5-min Rain = 0
KTH1 111811Z 18003KT 36/18 A3006 RMK A01 T03560178  RH  035%=      5-min Rain = 0
KTH1 111812Z 15003KT 36/17 A3006 RMK A01 T03590165  RH  032%=      5-min Rain = 0
KTH1 111813Z 17005KT 36/17 A3005 RMK A01 T03620165  RH  031%=      5-min Rain = 0
KTH1 111814Z 16008KT 36/16 A3005 RMK A01 T03630164  RH  031%=      5-min Rain = 0
KTH1 111815Z 17007KT 36/17 A3005 RMK A01 T03640166  RH  031%=      5-min Rain = 0
KTH1 111816Z 17005KT 37/17 A3005 RMK A01 T03680165  RH  030%=      5-min Rain = 0
KTH1 111817Z 18005KT 37/16 A3005 RMK A01 T03690160  RH  029%=      5-min Rain = 0
KTH1 111818Z 19003KT 37/16 A3005 RMK A01 T03660158  RH  029%=      5-min Rain = 0
KTH1 111819Z 23005KT 37/16 A3005 RMK A01 T03650160  RH  030%=      5-min Rain = 0
KTH1 111820Z 20008KT 36/16 A3005 RMK A01 T03640159  RH  030%=      5-min Rain = 0
KTH1 111821Z 17007KT 37/15 A3005 RMK A01 T03650154  RH  029%=      5-min Rain = 0
KTH1 111822Z 17006KT 37/15 A3005 RMK A01 T03660153  RH  028%=      5-min Rain = 0
KTH1 111823Z 17005KT 37/15 A3005 RMK A01 T03660150  RH  028%=      5-min Rain = 0
KTH1 111824Z 16005KT 37/15 A3005 RMK A01 T03670150  RH  028%=      5-min Rain = 0
KTH1 111825Z 19002KT 37/16 A3005 RMK A01 T03680155  RH  028%=      5-min Rain = 0
KTH1 111826Z 17002KT 37/15 A3005 RMK A01 T03670153  RH  028%=      5-min Rain = 0
KTH1 111827Z 07001KT 36/15 A3005 RMK A01 T03640153  RH  029%=      5-min Rain = 0
KTH1 111828Z 35002KT 36/15 A3005 RMK A01 T03620146  RH  028%=      5-min Rain = 0
KTH1 111829Z 32003KT 36/15 A3005 RMK A01 T03600147  RH  028%=      5-min Rain = 0
KTH1 111830Z 31003KT 36/15 A3005 RMK A01 T03610151  RH  029%=      5-min Rain = 0
KTH1 111831Z 28002KT 36/16 A3005 RMK A01 T03620156  RH  029%=      5-min Rain = 0
KTH1 111832Z 26002KT 36/15 A3005 RMK A01 T03620152  RH  029%=      5-min Rain = 0
KTH1 111833Z 29002KT 36/15 A3005 RMK A01 T03610150  RH  029%=      5-min Rain = 0
KTH1 111834Z 08001KT 36/15 A3005 RMK A01 T03610152  RH  029%=      5-min Rain = 0
KTH1 111835Z 13007G12KT 36/15 A3005 RMK A01 T03620152  RH  029%=      5-min Rain = 0
KTH1 111836Z 13008KT 37/15 A3005 RMK A01 T03660146  RH  027%=      5-min Rain = 0
KTH1 111837Z 14008KT 37/15 A3005 RMK A01 T03700146  RH  026%=      5-min Rain = 0
KTH1 111838Z 15007KT 38/14 A3005 RMK A01 T03750143  RH  025%=      5-min Rain = 0
KTH1 111839Z 11005KT 38/15 A3005 RMK A01 T03770147  RH  026%=      5-min Rain = 0
KTH1 111840Z 12006KT 38/15 A3005 RMK A01 T03760149  RH  026%=      5-min Rain = 0
KTH1 111841Z 10004KT 37/15 A3005 RMK A01 T03740153  RH  027%=      5-min Rain = 0
KTH1 111842Z 08004KT 37/15 A3005 RMK A01 T03730152  RH  027%=      5-min Rain = 0
KTH1 111843Z 10004KT 37/16 A3005 RMK A01 T03720155  RH  028%=      5-min Rain = 0
KTH1 111844Z 04002KT 37/16 A3005 RMK A01 T03720157  RH  028%=      5-min Rain = 0
KTH1 111845Z 07002KT 37/16 A3005 RMK A01 T03720158  RH  028%=      5-min Rain = 0
KTH1 111846Z 31001KT 37/16 A3005 RMK A01 T03720159  RH  028%=      5-min Rain = 0
KTH1 111847Z 02002KT 37/16 A3004 RMK A01 T03690156  RH  028%=      5-min Rain = 0
KTH1 111848Z 05003KT 37/16 A3004 RMK A01 T03680161  RH  029%=      5-min Rain = 0
KTH1 111849Z 07002KT 37/16 A3004 RMK A01 T03690159  RH  029%=      5-min Rain = 0
KTH1 111850Z 12002G7KT 37/16 A3004 RMK A01 T03700160  RH  029%=      5-min Rain = 0
KTH1 111851Z 14008KT 37/16 A3004 RMK A01 T03700158  RH  029%=      5-min Rain = 0
KTH1 111852Z 13009KT 37/16 A3004 RMK A01 T03680156  RH  028%=      5-min Rain = 0
KTH1 111853Z 14007KT 37/16 A3004 RMK A01 T03670155  RH  028%=      5-min Rain = 0
KTH1 111854Z 15007G12KT 37/16 A3004 RMK A01 T03680156  RH  029%=      5-min Rain = 0
KTH1 111855Z 16007KT 37/16 A3004 RMK A01 T03730159  RH  028%=      5-min Rain = 0
KTH1 111856Z 17010KT 37/16 A3004 RMK A01 T03740162  RH  029%=      5-min Rain = 0
KTH1 111857Z 16010KT 37/16 A3004 RMK A01 T03740161  RH  028%=      5-min Rain = 0
KTH1 111858Z 15008KT 37/16 A3004 RMK A01 T03720160  RH  029%=      5-min Rain = 0
KTH1 111859Z 14008KT 37/16 A3004 RMK A01 T03710160  RH  029%=      5-min Rain = 0
KTH1 111900Z 14006KT 37/16 A3004 RMK A01 T03710159  RH  029%=      5-min Rain = 0
KTH1 111901Z 13006KT 37/16 A3004 RMK A01 T03710155  RH  028%=      5-min Rain = 0
KTH1 111902Z 12005KT 37/16 A3003 RMK A01 T03700156  RH  028%=      5-min Rain = 0
KTH1 111903Z 14003KT 37/15 A3003 RMK A01 T03700154  RH  028%=      5-min Rain = 0
KTH1 111904Z 14002KT 37/16 A3003 RMK A01 T03680155  RH  028%=      5-min Rain = 0
KTH1 111905Z 15005G15KT 37/16 A3003 RMK A01 T03670158  RH  029%=      5-min Rain = 0
KTH1 111906Z 16010G18KT 37/16 A3003 RMK A01 T03700163  RH  030%=      5-min Rain = 0
KTH1 111907Z 18004G9KT 37/16 A3003 RMK A01 T03720162  RH  029%=      5-min Rain = 0
KTH1 111908Z 14006G11KT 37/17 A3003 RMK A01 T03730166  RH  030%=      5-min Rain = 0
KTH1 111909Z 14012KT 38/17 A3003 RMK A01 T03750167  RH  029%=      5-min Rain = 0
KTH1 111910Z 15009KT 38/17 A3003 RMK A01 T03750167  RH  029%=      5-min Rain = 0
KTH1 111911Z 14006KT 38/16 A3003 RMK A01 T03760164  RH  029%=      5-min Rain = 0
KTH1 111912Z 14006KT 38/16 A3003 RMK A01 T03750162  RH  028%=      5-min Rain = 0
KTH1 111913Z 16004KT 38/16 A3003 RMK A01 T03750161  RH  028%=      5-min Rain = 0
KTH1 111914Z 19001KT 37/16 A3003 RMK A01 T03720161  RH  029%=      5-min Rain = 0
KTH1 111915Z 11007KT 37/16 A3003 RMK A01 T03720164  RH  029%=      5-min Rain = 0
KTH1 111916Z 12005KT 37/16 A3003 RMK A01 T03690162  RH  029%=      5-min Rain = 0
KTH1 111917Z 12004KT 37/16 A3003 RMK A01 T03650164  RH  031%=      5-min Rain = 0
KTH1 111918Z 12007KT 36/17 A3003 RMK A01 T03640168  RH  031%=      5-min Rain = 0
KTH1 111919Z 13010KT 37/17 A3003 RMK A01 T03680172  RH  032%=      5-min Rain = 0
KTH1 111920Z 15011KT 37/17 A3003 RMK A01 T03740172  RH  031%=      5-min Rain = 0
KTH1 111921Z 15008G13KT 38/17 A3003 RMK A01 T03760172  RH  030%=      5-min Rain = 0
KTH1 111922Z 14009KT 38/17 A3003 RMK A01 T03780172  RH  030%=      5-min Rain = 0
KTH1 111923Z 12006KT 38/17 A3003 RMK A01 T03780171  RH  030%=      5-min Rain = 0
KTH1 111924Z 13004KT 37/17 A3003 RMK A01 T03740169  RH  030%=      5-min Rain = 0
KTH1 111925Z 14004KT 37/17 A3003 RMK A01 T03710171  RH  031%=      5-min Rain = 0
KTH1 111926Z 16002KT 37/17 A3003 RMK A01 T03720170  RH  030%=      5-min Rain = 0
KTH1 111927Z 13004G9KT 37/17 A3003 RMK A01 T03720171  RH  031%=      5-min Rain = 0
KTH1 111928Z 12008KT 37/17 A3003 RMK A01 T03730170  RH  030%=      5-min Rain = 0
KTH1 111929Z 10006KT 37/17 A3003 RMK A01 T03720171  RH  031%=      5-min Rain = 0
KTH1 111930Z 08006KT 37/17 A3003 RMK A01 T03720169  RH  030%=      5-min Rain = 0
KTH1 111931Z 11003KT 37/17 A3003 RMK A01 T03690168  RH  031%=      5-min Rain = 0
KTH1 111932Z 21006G11KT 37/17 A3003 RMK A01 T03660169  RH  031%=      5-min Rain = 0
KTH1 111933Z 19009KT 37/17 A3003 RMK A01 T03660169  RH  031%=      5-min Rain = 0
KTH1 111934Z 19008KT 36/17 A3003 RMK A01 T03640169  RH  032%=      5-min Rain = 0
KTH1 111935Z 18008KT 36/17 A3003 RMK A01 T03640168  RH  031%=      5-min Rain = 0
KTH1 111936Z 16008KT 37/17 A3003 RMK A01 T03670167  RH  031%=      5-min Rain = 0
KTH1 111937Z 15008KT 37/17 A3003 RMK A01 T03720166  RH  030%=      5-min Rain = 0
KTH1 111938Z 17009KT 38/16 A3003 RMK A01 T03760164  RH  029%=      5-min Rain = 0
KTH1 111939Z 15009KT 38/16 A3003 RMK A01 T03770163  RH  028%=      5-min Rain = 0
KTH1 111940Z 12003KT 38/17 A3003 RMK A01 T03750168  RH  030%=      5-min Rain = 0
KTH1 111941Z 09002KT 37/17 A3003 RMK A01 T03740165  RH  029%=      5-min Rain = 0
KTH1 111942Z 12002KT 37/17 A3002 RMK A01 T03710165  RH  030%=      5-min Rain = 0
KTH1 111943Z 15004KT 37/17 A3002 RMK A01 T03720166  RH  030%=      5-min Rain = 0
KTH1 111944Z 16004KT 37/16 A3002 RMK A01 T03730164  RH  029%=      5-min Rain = 0
KTH1 111945Z 15008G14KT 37/17 A3002 RMK A01 T03730166  RH  029%=      5-min Rain = 0
KTH1 111946Z 17010KT 37/17 A3002 RMK A01 T03710168  RH  030%=      5-min Rain = 0
KTH1 111947Z 18010KT 37/17 A3002 RMK A01 T03680169  RH  031%=      5-min Rain = 0
KTH1 111948Z 18008KT 37/17 A3002 RMK A01 T03650169  RH  031%=      5-min Rain = 0
KTH1 111949Z 16005KT 36/17 A3002 RMK A01 T03630169  RH  032%=      5-min Rain = 0
KTH1 111950Z 16006KT 36/17 A3002 RMK A01 T03620169  RH  032%=      5-min Rain = 0
KTH1 111951Z 15008KT 36/17 A3002 RMK A01 T03620168  RH  032%=      5-min Rain = 0
KTH1 111952Z 15005KT 36/17 A3002 RMK A01 T03630171  RH  032%=      5-min Rain = 0
KTH1 111953Z 16007KT 37/17 A3002 RMK A01 T03700172  RH  031%=      5-min Rain = 0
KTH1 111954Z 14005KT 37/17 A3002 RMK A01 T03730169  RH  030%=      5-min Rain = 0
KTH1 111955Z 14003KT 38/17 A3002 RMK A01 T03750167  RH  030%=      5-min Rain = 0
KTH1 111956Z 18008KT 38/17 A3002 RMK A01 T03750170  RH  030%=      5-min Rain = 0
KTH1 111957Z 19008KT 38/17 A3002 RMK A01 T03770170  RH  030%=      5-min Rain = 0
KTH1 111958Z 19009KT 38/17 A3002 RMK A01 T03750168  RH  030%=      5-min Rain = 0
KTH1 111959Z 18008KT 37/17 A3002 RMK A01 T03720168  RH  030%=      5-min Rain = 0
KTH1 112000Z 17007KT 37/17 A3002 RMK A01 T03710167  RH  030%=      5-min Rain = 0
KTH1 112001Z 16004KT 37/17 A3002 RMK A01 T03720166  RH  030%=      5-min Rain = 0
KTH1 112002Z 13003KT 37/17 A3002 RMK A01 T03740166  RH  029%=      5-min Rain = 0
KTH1 112003Z 08002KT 37/17 A3002 RMK A01 T03740166  RH  029%=      5-min Rain = 0
KTH1 112004Z 11005KT 38/17 A3001 RMK A01 T03750168  RH  030%=      5-min Rain = 0
KTH1 112005Z 12005KT 38/17 A3001 RMK A01 T03760170  RH  030%=      5-min Rain = 0
KTH1 112006Z 23007KT 38/17 A3001 RMK A01 T03780171  RH  030%=      5-min Rain = 0
KTH1 112007Z 27008KT 38/17 A3001 RMK A01 T03780170  RH  029%=      5-min Rain = 0
KTH1 112008Z 30007KT 37/17 A3001 RMK A01 T03730167  RH  030%=      5-min Rain = 0
KTH1 112009Z 26005KT 37/17 A3001 RMK A01 T03680170  RH  031%=      5-min Rain = 0
KTH1 112010Z 23006KT 37/17 A3001 RMK A01 T03690173  RH  032%=      5-min Rain = 0
KTH1 112011Z 20008KT 37/17 A3001 RMK A01 T03710170  RH  031%=      5-min Rain = 0
KTH1 112012Z 19007KT 37/17 A3001 RMK A01 T03740170  RH  030%=      5-min Rain = 0
KTH1 112013Z 20010KT 38/17 A3001 RMK A01 T03790170  RH  029%=      5-min Rain = 0
KTH1 112014Z 20009KT 38/17 A3001 RMK A01 T03800168  RH  029%=      5-min Rain = 0
KTH1 112015Z 20009G14KT 38/17 A3001 RMK A01 T03800169  RH  029%=      5-min Rain = 0
KTH1 112016Z 21007G12KT 38/17 A3001 RMK A01 T03790167  RH  029%=      5-min Rain = 0
KTH1 112017Z 18006KT 38/17 A3001 RMK A01 T03790168  RH  029%=      5-min Rain = 0
KTH1 112018Z 19007G12KT 38/17 A3001 RMK A01 T03780168  RH  029%=      5-min Rain = 0
KTH1 112019Z 22008KT 38/17 A3001 RMK A01 T03790168  RH  029%=      5-min Rain = 0
KTH1 112020Z 22006KT 38/17 A3001 RMK A01 T03750165  RH  029%=      5-min Rain = 0
KTH1 112021Z 20006KT 37/17 A3001 RMK A01 T03720168  RH  030%=      5-min Rain = 0
KTH1 112022Z 18005KT 38/16 A3001 RMK A01 T03750164  RH  029%=      5-min Rain = 0
KTH1 112023Z 15002KT 38/16 A3001 RMK A01 T03760163  RH  029%=      5-min Rain = 0
KTH1 112024Z 20006G11KT 38/17 A30 RMK A01 T03760165  RH  029%=      5-min Rain = 0
KTH1 112025Z 19007KT 38/17 A30 RMK A01 T03810166  RH  028%=      5-min Rain = 0
KTH1 112026Z 21004G9KT 38/17 A30 RMK A01 T03830166  RH  028%=      5-min Rain = 0
KTH1 112027Z 19006G11KT 39/17 A30 RMK A01 T03850168  RH  028%=      5-min Rain = 0
KTH1 112028Z 21007KT 39/17 A30 RMK A01 T03880170  RH  028%=      5-min Rain = 0
KTH1 112029Z 19004KT 38/17 A30 RMK A01 T03840166  RH  028%=      5-min Rain = 0
KTH1 112030Z 20004KT 38/17 A30 RMK A01 T03790166  RH  029%=      5-min Rain = 0
KTH1 112031Z 16006KT 38/17 A30 RMK A01 T03760165  RH  029%=      5-min Rain = 0
KTH1 112032Z 15008KT 37/16 A30 RMK A01 T03740164  RH  029%=      5-min Rain = 0
KTH1 112033Z 16006KT 37/16 A30 RMK A01 T03730163  RH  029%=      5-min Rain = 0
KTH1 112034Z 14008KT 37/16 A30 RMK A01 T03710163  RH  029%=      5-min Rain = 0
KTH1 112035Z 13008KT 37/16 A30 RMK A01 T03710163  RH  029%=      5-min Rain = 0
KTH1 112036Z 14008KT 37/16 A30 RMK A01 T03690162  RH  029%=      5-min Rain = 0
KTH1 112037Z 12008KT 37/16 A30 RMK A01 T03680162  RH  030%=      5-min Rain = 0
KTH1 112038Z 12006KT 37/16 A30 RMK A01 T03680162  RH  030%=      5-min Rain = 0
KTH1 112039Z 19004G9KT 37/16 A30 RMK A01 T03680164  RH  030%=      5-min Rain = 0
KTH1 112040Z 20009KT 37/17 A30 RMK A01 T03700165  RH  030%=      5-min Rain = 0
KTH1 112041Z 16007KT 38/17 A30 RMK A01 T03750169  RH  030%=      5-min Rain = 0
KTH1 112042Z 15006KT 38/17 A30 RMK A01 T03800169  RH  029%=      5-min Rain = 0
KTH1 112043Z 19007KT 38/17 A30 RMK A01 T03800169  RH  029%=      5-min Rain = 0
KTH1 112044Z 20007KT 38/17 A30 RMK A01 T03780167  RH  029%=      5-min Rain = 0
KTH1 112045Z 20004KT 38/17 A2999 RMK A01 T03760166  RH  029%=      5-min Rain = 0
KTH1 112046Z 20009KT 38/17 A2999 RMK A01 T03750167  RH  029%=      5-min Rain = 0
KTH1 112047Z 18008KT 38/17 A2999 RMK A01 T03770167  RH  029%=      5-min Rain = 0
KTH1 112048Z 18005G12KT 38/17 A2999 RMK A01 T03790166  RH  029%=      5-min Rain = 0
KTH1 112049Z 18004KT 38/17 A2999 RMK A01 T03810169  RH  029%=      5-min Rain = 0
KTH1 112050Z 19008KT 39/17 A2999 RMK A01 T03850168  RH  028%=      5-min Rain = 0
KTH1 112051Z 21008KT 39/17 A2999 RMK A01 T03850167  RH  028%=      5-min Rain = 0
KTH1 112052Z 19008G15KT 38/17 A2999 RMK A01 T03840169  RH  028%=      5-min Rain = 0
KTH1 112053Z 17008KT 39/17 A2999 RMK A01 T03850167  RH  028%=      5-min Rain = 0
KTH1 112054Z 16008KT 39/17 A2999 RMK A01 T03850168  RH  028%=      5-min Rain = 0
KTH1 112055Z 18007KT 38/17 A2999 RMK A01 T03840168  RH  028%=      5-min Rain = 0
KTH1 112056Z 20008KT 38/17 A2999 RMK A01 T03840167  RH  028%=      5-min Rain = 0
KTH1 112057Z 17005KT 38/17 A2999 RMK A01 T03830165  RH  028%=      5-min Rain = 0
KTH1 112058Z 14006KT 38/17 A2999 RMK A01 T03810165  RH  028%=      5-min Rain = 0
KTH1 112059Z 20004G10KT 38/17 A2999 RMK A01 T03810166  RH  028%=      5-min Rain = 0
KTH1 112100Z 18009KT 38/17 A2999 RMK A01 T03810166  RH  028%=      5-min Rain = 0
KTH1 112101Z 17004KT 38/16 A2999 RMK A01 T03820164  RH  028%=      5-min Rain = 0
KTH1 112102Z 22007G12KT 38/17 A2999 RMK A01 T03800165  RH  028%=      5-min Rain = 0
KTH1 112103Z 21007G12KT 38/17 A2999 RMK A01 T03800167  RH  029%=      5-min Rain = 0
KTH1 112104Z 21006G11KT 38/17 A2999 RMK A01 T03810166  RH  028%=      5-min Rain = 0
KTH1 112105Z 21007KT 38/17 A2999 RMK A01 T03820165  RH  028%=      5-min Rain = 0
KTH1 112106Z 20008KT 38/16 A2999 RMK A01 T03820164  RH  028%=      5-min Rain = 0
KTH1 112107Z 18007KT 38/16 A2999 RMK A01 T03800164  RH  028%=      5-min Rain = 0
KTH1 112108Z 17007KT 38/16 A2999 RMK A01 T03800164  RH  028%=      5-min Rain = 0
KTH1 112109Z 17006KT 38/17 A2999 RMK A01 T03820165  RH  028%=      5-min Rain = 0
KTH1 112110Z 15005KT 38/16 A2999 RMK A01 T03840164  RH  028%=      5-min Rain = 0
KTH1 112111Z 20002KT 38/16 A2998 RMK A01 T03810162  RH  028%=      5-min Rain = 0
KTH1 112112Z 22003KT 38/16 A2998 RMK A01 T03780161  RH  028%=      5-min Rain = 0
KTH1 112113Z 18002KT 38/16 A2998 RMK A01 T03770162  RH  028%=      5-min Rain = 0
KTH1 112114Z 18002KT 38/16 A2998 RMK A01 T03760163  RH  029%=      5-min Rain = 0
KTH1 112115Z 21002KT 38/16 A2998 RMK A01 T03760163  RH  029%=      5-min Rain = 0
KTH1 112116Z 18007KT 38/17 A2998 RMK A01 T03770166  RH  029%=      5-min Rain = 0
KTH1 112117Z 17004KT 38/16 A2998 RMK A01 T03790164  RH  028%=      5-min Rain = 0
KTH1 112118Z 16003KT 38/17 A2998 RMK A01 T03790166  RH  029%=      5-min Rain = 0
KTH1 112119Z 22007KT 38/17 A2998 RMK A01 T03820167  RH  028%=      5-min Rain = 0
KTH1 112120Z 22010KT 38/17 A2998 RMK A01 T03820166  RH  028%=      5-min Rain = 0
KTH1 112121Z 23008KT 38/17 A2998 RMK A01 T03780166  RH  029%=      5-min Rain = 0
KTH1 112122Z 22010KT 38/17 A2998 RMK A01 T03770167  RH  029%=      5-min Rain = 0
KTH1 112123Z 22009KT 38/17 A2998 RMK A01 T03770168  RH  029%=      5-min Rain = 0
KTH1 112124Z 20006KT 38/17 A2998 RMK A01 T03800169  RH  029%=      5-min Rain = 0
KTH1 112125Z 18006KT 38/17 A2998 RMK A01 T03830165  RH  028%=      5-min Rain = 0
KTH1 112126Z 21005KT 38/17 A2998 RMK A01 T03810167  RH  028%=      5-min Rain = 0
KTH1 112127Z 19004KT 38/17 A2998 RMK A01 T03820165  RH  028%=      5-min Rain = 0
KTH1 112128Z 17005KT 38/17 A2998 RMK A01 T03830167  RH  028%=      5-min Rain = 0
KTH1 112129Z 17008KT 38/16 A2998 RMK A01 T03840164  RH  027%=      5-min Rain = 0
KTH1 112130Z 19005KT 38/16 A2998 RMK A01 T03810164  RH  028%=      5-min Rain = 0
KTH1 112131Z 15005KT 38/17 A2998 RMK A01 T03800166  RH  029%=      5-min Rain = 0
KTH1 112132Z 13007KT 38/17 A2997 RMK A01 T03810167  RH  029%=      5-min Rain = 0
KTH1 112133Z 13008KT 38/17 A2997 RMK A01 T03820169  RH  029%=      5-min Rain = 0
KTH1 112134Z 13008KT 38/17 A2997 RMK A01 T03840167  RH  028%=      5-min Rain = 0
KTH1 112135Z 14009KT 38/17 A2997 RMK A01 T03840168  RH  028%=      5-min Rain = 0
KTH1 112136Z 15009KT 39/17 A2997 RMK A01 T03850167  RH  028%=      5-min Rain = 0
KTH1 112137Z 15007KT 39/17 A2997 RMK A01 T03850166  RH  028%=      5-min Rain = 0
KTH1 112138Z 14007KT 39/17 A2998 RMK A01 T03850167  RH  028%=      5-min Rain = 0
KTH1 112139Z 19004KT 39/17 A2998 RMK A01 T03870168  RH  028%=      5-min Rain = 0
KTH1 112140Z 21004KT 39/17 A2997 RMK A01 T03870168  RH  028%=      5-min Rain = 0
KTH1 112141Z 14006G11KT 39/17 A2997 RMK A01 T03850167  RH  028%=      5-min Rain = 0
KTH1 112142Z 19005KT 38/17 A2997 RMK A01 T03810166  RH  028%=      5-min Rain = 0
KTH1 112143Z 17006KT 38/17 A2997 RMK A01 T03830167  RH  028%=      5-min Rain = 0
KTH1 112144Z 19006KT 38/17 A2997 RMK A01 T03840165  RH  028%=      5-min Rain = 0
KTH1 112145Z 19005KT 38/16 A2997 RMK A01 T03840164  RH  028%=      5-min Rain = 0
KTH1 112146Z 16005KT 38/17 A2997 RMK A01 T03820166  RH  028%=      5-min Rain = 0
KTH1 112147Z 16005KT 38/17 A2997 RMK A01 T03830165  RH  028%=      5-min Rain = 0
KTH1 112148Z 16003KT 38/16 A2997 RMK A01 T03840164  RH  027%=      5-min Rain = 0
KTH1 112149Z 15003KT 38/17 A2997 RMK A01 T03830165  RH  028%=      5-min Rain = 0
KTH1 112150Z 20004KT 38/17 A2997 RMK A01 T03830166  RH  028%=      5-min Rain = 0
KTH1 112151Z 20008KT 38/17 A2997 RMK A01 T03830166  RH  028%=      5-min Rain = 0
KTH1 112152Z 18010KT 38/17 A2997 RMK A01 T03820167  RH  028%=      5-min Rain = 0
KTH1 112153Z 19009KT 38/17 A2997 RMK A01 T03830167  RH  028%=      5-min Rain = 0
KTH1 112154Z 20009KT 38/17 A2997 RMK A01 T03810167  RH  028%=      5-min Rain = 0
KTH1 112155Z 20007KT 38/17 A2997 RMK A01 T03790167  RH  029%=      5-min Rain = 0
KTH1 112156Z 18010KT 38/17 A2997 RMK A01 T03770167  RH  029%=      5-min Rain = 0
KTH1 112157Z 18007KT 38/17 A2997 RMK A01 T03760166  RH  029%=      5-min Rain = 0
KTH1 112158Z 19007KT 38/17 A2997 RMK A01 T03750167  RH  029%=      5-min Rain = 0
KTH1 112159Z 19005KT 37/17 A2997 RMK A01 T03740167  RH  030%=      5-min Rain = 0
KTH1 112200Z 19006KT 37/17 A2997 RMK A01 T03740167  RH  030%=      5-min Rain = 0
KTH1 112201Z 19007KT 37/17 A2997 RMK A01 T03720167  RH  030%=      5-min Rain = 0
KTH1 112202Z 19005KT 37/17 A2997 RMK A01 T03700166  RH  030%=      5-min Rain = 0
KTH1 112203Z 16005KT 37/17 A2997 RMK A01 T03670166  RH  031%=      5-min Rain = 0
KTH1 112204Z 16009KT 37/17 A2997 RMK A01 T03660166  RH  031%=      5-min Rain = 0
KTH1 112205Z 14011KT 36/17 A2996 RMK A01 T03640165  RH  031%=      5-min Rain = 0
KTH1 112206Z 14010KT 36/17 A2996 RMK A01 T03640165  RH  031%=      5-min Rain = 0
KTH1 112207Z 13011KT 36/17 A2996 RMK A01 T03630165  RH  031%=      5-min Rain = 0
KTH1 112208Z 13009KT 36/17 A2996 RMK A01 T03630165  RH  031%=      5-min Rain = 0
KTH1 112209Z 13009KT 37/17 A2996 RMK A01 T03650166  RH  031%=      5-min Rain = 0
KTH1 112210Z 14008KT 37/17 A2996 RMK A01 T03670166  RH  031%=      5-min Rain = 0
KTH1 112211Z 13007KT 37/17 A2996 RMK A01 T03680166  RH  030%=      5-min Rain = 0
KTH1 112212Z 14006KT 37/17 A2996 RMK A01 T03710167  RH  030%=      5-min Rain = 0
KTH1 112213Z 16007KT 37/17 A2996 RMK A01 T03730166  RH  030%=      5-min Rain = 0
KTH1 112214Z 16009KT 37/17 A2996 RMK A01 T03740167  RH  029%=      5-min Rain = 0
KTH1 112215Z 17007KT 37/17 A2996 RMK A01 T03740166  RH  029%=      5-min Rain = 0
KTH1 112216Z 17004KT 38/17 A2996 RMK A01 T03750168  RH  030%=      5-min Rain = 0
KTH1 112217Z 15005KT 38/17 A2996 RMK A01 T03770168  RH  029%=      5-min Rain = 0
KTH1 112218Z 18004KT 38/17 A2996 RMK A01 T03780167  RH  029%=      5-min Rain = 0
KTH1 112219Z 17006KT 38/17 A2996 RMK A01 T03790167  RH  029%=      5-min Rain = 0
KTH1 112220Z 18003KT 38/17 A2996 RMK A01 T03770166  RH  029%=      5-min Rain = 0
KTH1 112221Z 19005KT 38/17 A2996 RMK A01 T03750167  RH  030%=      5-min Rain = 0
KTH1 112222Z 16006KT 38/17 A2996 RMK A01 T03760168  RH  029%=      5-min Rain = 0
KTH1 112223Z 15009G14KT 38/17 A2996 RMK A01 T03780167  RH  029%=      5-min Rain = 0
KTH1 112224Z 15007KT 38/17 A2996 RMK A01 T03780166  RH  029%=      5-min Rain = 0
KTH1 112225Z 14010KT 38/17 A2996 RMK A01 T03780168  RH  029%=      5-min Rain = 0
KTH1 112226Z 15007KT 38/17 A2996 RMK A01 T03780167  RH  029%=      5-min Rain = 0
KTH1 112227Z 17007KT 38/17 A2996 RMK A01 T03770168  RH  029%=      5-min Rain = 0
KTH1 112228Z 17008KT 38/17 A2995 RMK A01 T03770167  RH  029%=      5-min Rain = 0
KTH1 112229Z 18006KT 38/17 A2995 RMK A01 T03770166  RH  029%=      5-min Rain = 0
KTH1 112230Z 17006KT 38/17 A2995 RMK A01 T03770167  RH  029%=      5-min Rain = 0
KTH1 112231Z 16005KT 38/17 A2995 RMK A01 T03790168  RH  029%=      5-min Rain = 0
KTH1 112232Z 13005KT 38/17 A2995 RMK A01 T03810169  RH  029%=      5-min Rain = 0
KTH1 112233Z 16008KT 38/17 A2995 RMK A01 T03830169  RH  029%=      5-min Rain = 0
KTH1 112234Z 17007KT 38/17 A2995 RMK A01 T03810168  RH  029%=      5-min Rain = 0
KTH1 112235Z 15009KT 38/17 A2995 RMK A01 T03790167  RH  029%=      5-min Rain = 0
KTH1 112236Z 16008KT 38/17 A2996 RMK A01 T03780167  RH  029%=      5-min Rain = 0
KTH1 112237Z 16008KT 38/17 A2995 RMK A01 T03770165  RH  029%=      5-min Rain = 0
KTH1 112238Z 16007KT 38/17 A2995 RMK A01 T03750166  RH  029%=      5-min Rain = 0
KTH1 112239Z 15009KT 37/16 A2995 RMK A01 T03720164  RH  029%=      5-min Rain = 0
KTH1 112240Z 14007KT 37/16 A2995 RMK A01 T03690164  RH  030%=      5-min Rain = 0
KTH1 112241Z 14007KT 37/16 A2995 RMK A01 T03670164  RH  030%=      5-min Rain = 0
KTH1 112242Z 15006KT 37/16 A2995 RMK A01 T03650163  RH  030%=      5-min Rain = 0
KTH1 112243Z 17006KT 36/16 A2995 RMK A01 T03630164  RH  031%=      5-min Rain = 0
KTH1 112244Z 16007KT 36/16 A2995 RMK A01 T03630163  RH  031%=      5-min Rain = 0
KTH1 112245Z 16005KT 36/16 A2995 RMK A01 T03620163  RH  031%=      5-min Rain = 0
KTH1 112246Z 16006KT 36/16 A2995 RMK A01 T03640164  RH  031%=      5-min Rain = 0
KTH1 112247Z 18005KT 37/16 A2995 RMK A01 T03660163  RH  030%=      5-min Rain = 0
KTH1 112248Z 19005KT 37/16 A2995 RMK A01 T03690164  RH  030%=      5-min Rain = 0
KTH1 112249Z 17004KT 37/16 A2995 RMK A01 T03710163  RH  029%=      5-min Rain = 0
KTH1 112250Z 14007G12KT 37/16 A2995 RMK A01 T03720164  RH  029%=      5-min Rain = 0
KTH1 112251Z 14007G12KT 37/16 A2995 RMK A01 T03740164  RH  029%=      5-min Rain = 0
KTH1 112252Z 15009KT 37/17 A2995 RMK A01 T03740165  RH  029%=      5-min Rain = 0
KTH1 112253Z 14008KT 38/16 A2995 RMK A01 T03760164  RH  029%=      5-min Rain = 0
KTH1 112254Z 15010KT 38/16 A2995 RMK A01 T03750163  RH  029%=      5-min Rain = 0
KTH1 112255Z 15011KT 37/16 A2995 RMK A01 T03720162  RH  029%=      5-min Rain = 0
KTH1 112256Z 13008KT 37/16 A2995 RMK A01 T03710163  RH  029%=      5-min Rain = 0
KTH1 112257Z 14004G9KT 37/16 A2995 RMK A01 T03710163  RH  029%=      5-min Rain = 0
KTH1 112258Z 16006KT 37/17 A2995 RMK A01 T03740165  RH  029%=      5-min Rain = 0
KTH1 112259Z 18006KT 38/16 A2995 RMK A01 T03750164  RH  029%=      5-min Rain = 0
KTH1 112300Z 16004KT 37/16 A2995 RMK A01 T03740164  RH  029%=      5-min Rain = 0
KTH1 112301Z 14004KT 37/17 A2995 RMK A01 T03740165  RH  029%=      5-min Rain = 0
KTH1 112302Z 12007KT 38/16 A2994 RMK A01 T03760164  RH  029%=      5-min Rain = 0
KTH1 112303Z 13007KT 38/16 A2994 RMK A01 T03760164  RH  029%=      5-min Rain = 0
KTH1 112304Z 13008KT 37/16 A2994 RMK A01 T03740164  RH  029%=      5-min Rain = 0
KTH1 112305Z 14006KT 37/17 A2994 RMK A01 T03730165  RH  029%=      5-min Rain = 0
KTH1 112306Z 15006G11KT 37/17 A2994 RMK A01 T03740166  RH  029%=      5-min Rain = 0
KTH1 112307Z 14009KT 37/17 A2994 RMK A01 T03740169  RH  030%=      5-min Rain = 0
KTH1 112308Z 14008KT 38/17 A2994 RMK A01 T03750171  RH  030%=      5-min Rain = 0
KTH1 112309Z 14011KT 38/17 A2994 RMK A01 T03770170  RH  030%=      5-min Rain = 0
KTH1 112310Z 14010KT 38/17 A2994 RMK A01 T03770170  RH  030%=      5-min Rain = 0
KTH1 112311Z 15009G14KT 38/17 A2994 RMK A01 T03760171  RH  030%=      5-min Rain = 0
KTH1 112312Z 15011KT 38/17 A2994 RMK A01 T03760172  RH  030%=      5-min Rain = 0
KTH1 112313Z 15010KT 38/17 A2994 RMK A01 T03750171  RH  030%=      5-min Rain = 0
KTH1 112314Z 13010KT 37/17 A2994 RMK A01 T03730173  RH  031%=      5-min Rain = 0
KTH1 112315Z 14013KT 37/17 A2994 RMK A01 T03730171  RH  031%=      5-min Rain = 0
KTH1 112316Z 14012KT 37/17 A2994 RMK A01 T03730171  RH  030%=      5-min Rain = 0
KTH1 112317Z 14010G16KT 37/17 A2994 RMK A01 T03720171  RH  031%=      5-min Rain = 0
KTH1 112318Z 13010KT 37/17 A2994 RMK A01 T03710172  RH  031%=      5-min Rain = 0
KTH1 112319Z 13011KT 37/17 A2994 RMK A01 T03720171  RH  031%=      5-min Rain = 0
KTH1 112320Z 14013KT 37/17 A2994 RMK A01 T03720171  RH  031%=      5-min Rain = 0
KTH1 112321Z 15011KT 37/17 A2994 RMK A01 T03700171  RH  031%=      5-min Rain = 0
KTH1 112322Z 14011KT 37/17 A2994 RMK A01 T03700171  RH  031%=      5-min Rain = 0
KTH1 112323Z 14010KT 37/17 A2994 RMK A01 T03690170  RH  031%=      5-min Rain = 0
KTH1 112324Z 13008KT 37/17 A2994 RMK A01 T03680170  RH  031%=      5-min Rain = 0
KTH1 112325Z 14004KT 37/17 A2994 RMK A01 T03680171  RH  031%=      5-min Rain = 0
KTH1 112326Z 15008KT 37/17 A2994 RMK A01 T03680172  RH  031%=      5-min Rain = 0
KTH1 112327Z 15007KT 37/17 A2994 RMK A01 T03710173  RH  031%=      5-min Rain = 0
KTH1 112328Z 15007KT 37/17 A2994 RMK A01 T03710172  RH  031%=      5-min Rain = 0
KTH1 112329Z 15007KT 37/17 A2994 RMK A01 T03710172  RH  031%=      5-min Rain = 0
KTH1 112330Z 13007G14KT 37/17 A2994 RMK A01 T03700173  RH  031%=      5-min Rain = 0
KTH1 112331Z 14011KT 37/17 A2994 RMK A01 T03700171  RH  031%=      5-min Rain = 0
KTH1 112332Z 14009KT 37/17 A2994 RMK A01 T03690170  RH  031%=      5-min Rain = 0
KTH1 112333Z 14007KT 37/17 A2994 RMK A01 T03680170  RH  031%=      5-min Rain = 0
KTH1 112334Z 13007KT 37/17 A2994 RMK A01 T03670172  RH  032%=      5-min Rain = 0
KTH1 112335Z 13010KT 37/17 A2994 RMK A01 T03680173  RH  032%=      5-min Rain = 0
KTH1 112336Z 14006G11KT 37/17 A2994 RMK A01 T03670173  RH  032%=      5-min Rain = 0
KTH1 112337Z 14008KT 37/17 A2994 RMK A01 T03670174  RH  032%=      5-min Rain = 0
KTH1 112338Z 14014KT 37/17 A2994 RMK A01 T03680174  RH  032%=      5-min Rain = 0
KTH1 112339Z 14014KT 37/17 A2994 RMK A01 T03670172  RH  032%=      5-min Rain = 0
KTH1 112340Z 13012KT 37/17 A2994 RMK A01 T03650172  RH  032%=      5-min Rain = 0
KTH1 112341Z 12008KT 36/17 A2994 RMK A01 T03630172  RH  033%=      5-min Rain = 0
KTH1 112342Z 11009KT 36/17 A2994 RMK A01 T03620173  RH  033%=      5-min Rain = 0
KTH1 112343Z 13010KT 36/17 A2994 RMK A01 T03620174  RH  033%=      5-min Rain = 0
KTH1 112344Z 11008KT 36/17 A2994 RMK A01 T03620173  RH  033%=      5-min Rain = 0
KTH1 112345Z 12008G16KT 36/17 A2994 RMK A01 T03630174  RH  033%=      5-min Rain = 0
KTH1 112346Z 13012KT 36/17 A2994 RMK A01 T03630174  RH  033%=      5-min Rain = 0
KTH1 112347Z 13014KT 36/17 A2994 RMK A01 T03620173  RH  033%=      5-min Rain = 0
KTH1 112348Z 13014KT 36/17 A2994 RMK A01 T03610172  RH  033%=      5-min Rain = 0
KTH1 112349Z 13014KT 36/17 A2994 RMK A01 T03600173  RH  033%=      5-min Rain = 0
KTH1 112350Z 13011KT 36/17 A2994 RMK A01 T03600173  RH  033%=      5-min Rain = 0
KTH1 112351Z 13013KT 36/17 A2994 RMK A01 T03600173  RH  033%=      5-min Rain = 0
KTH1 112352Z 13013KT 36/17 A2994 RMK A01 T03600173  RH  033%=      5-min Rain = 0
KTH1 112353Z 12011KT 36/17 A2994 RMK A01 T03590173  RH  033%=      5-min Rain = 0
KTH1 112354Z 13011KT 36/17 A2994 RMK A01 T03590173  RH  033%=      5-min Rain = 0
KTH1 112355Z 13010KT 36/17 A2994 RMK A01 T03590173  RH  033%=      5-min Rain = 0
KTH1 112356Z 11008KT 36/17 A2994 RMK A01 T03590173  RH  033%=      5-min Rain = 0
KTH1 112357Z 11010KT 36/17 A2994 RMK A01 T03590173  RH  033%=      5-min Rain = 0
KTH1 112358Z 11012KT 36/17 A2994 RMK A01 T03590173  RH  033%=      5-min Rain = 0
KTH1 112359Z 12011KT 36/17 A2994 RMK A01 T03580173  RH  033%=      5-min Rain = 0
KTH1 120000Z 12010KT 36/17 A2994 RMK A01 T03580174  RH  034%=      5-min Rain = 0
KTH1 120001Z 12011KT 36/17 A2994 RMK A01 T03580173  RH  034%=      5-min Rain = 0
KTH1 120002Z 13011G17KT 36/18 A2994 RMK A01 T03570175  RH  034%=      5-min Rain = 0
KTH1 120003Z 12011KT 36/18 A2994 RMK A01 T03580178  RH  035%=      5-min Rain = 0
KTH1 120004Z 13012KT 36/18 A2994 RMK A01 T03570178  RH  035%=      5-min Rain = 0
KTH1 120005Z 13013KT 36/18 A2994 RMK A01 T03550178  RH  035%=      5-min Rain = 0
KTH1 120006Z 13011G16KT 35/18 A2994 RMK A01 T03540178  RH  035%=      5-min Rain = 0
KTH1 120007Z 12012KT 35/18 A2994 RMK A01 T03530177  RH  036%=      5-min Rain = 0
KTH1 120008Z 12011KT 35/18 A2994 RMK A01 T03520177  RH  036%=      5-min Rain = 0
KTH1 120009Z 13010KT 35/18 A2994 RMK A01 T03520178  RH  036%=      5-min Rain = 0
KTH1 120010Z 14010KT 35/18 A2994 RMK A01 T03520179  RH  036%=      5-min Rain = 0
KTH1 120011Z 14014KT 35/18 A2994 RMK A01 T03520178  RH  036%=      5-min Rain = 0
KTH1 120012Z 14012G17KT 35/18 A2994 RMK A01 T03520178  RH  036%=      5-min Rain = 0
KTH1 120013Z 14012KT 35/18 A2994 RMK A01 T03510179  RH  036%=      5-min Rain = 0
KTH1 120014Z 13009KT 35/18 A2995 RMK A01 T03510179  RH  036%=      5-min Rain = 0
KTH1 120015Z 12008KT 35/18 A2995 RMK A01 T03510179  RH  036%=      5-min Rain = 0
KTH1 120016Z 12009KT 35/18 A2995 RMK A01 T03510179  RH  036%=      5-min Rain = 0
KTH1 120017Z 13009KT 35/18 A2995 RMK A01 T03510179  RH  036%=      5-min Rain = 0
KTH1 120018Z 13008G13KT 35/18 A2995 RMK A01 T03510179  RH  036%=      5-min Rain = 0
KTH1 120019Z 13012KT 35/18 A2995 RMK A01 T03510179  RH  036%=      5-min Rain = 0
KTH1 120020Z 14010KT 35/18 A2995 RMK A01 T03510179  RH  036%=      5-min Rain = 0
KTH1 120021Z 14011KT 35/18 A2995 RMK A01 T03510179  RH  036%=      5-min Rain = 0
KTH1 120022Z 14011KT 35/18 A2995 RMK A01 T03500179  RH  036%=      5-min Rain = 0
KTH1 120023Z 14013KT 35/18 A2995 RMK A01 T03500179  RH  036%=      5-min Rain = 0
KTH1 120024Z 13013KT 35/18 A2995 RMK A01 T03500178  RH  036%=      5-min Rain = 0
KTH1 120025Z 13012G17KT 35/18 A2995 RMK A01 T03490178  RH  036%=      5-min Rain = 0
KTH1 120026Z 12010KT 35/18 A2995 RMK A01 T03480178  RH  037%=      5-min Rain = 0
KTH1 120027Z 13011KT 35/18 A2995 RMK A01 T03480179  RH  037%=      5-min Rain = 0
KTH1 120028Z 13013KT 35/18 A2995 RMK A01 T03480178  RH  037%=      5-min Rain = 0
KTH1 120029Z 13008G13KT 35/18 A2995 RMK A01 T03480179  RH  037%=      5-min Rain = 0
KTH1 120030Z 14012KT 35/18 A2995 RMK A01 T03480179  RH  037%=      5-min Rain = 0
KTH1 120031Z 13012KT 35/18 A2995 RMK A01 T03480179  RH  037%=      5-min Rain = 0
KTH1 120032Z 13012KT 35/18 A2995 RMK A01 T03480178  RH  037%=      5-min Rain = 0
KTH1 120033Z 13009KT 35/18 A2995 RMK A01 T03480178  RH  037%=      5-min Rain = 0
KTH1 120034Z 13009KT 35/18 A2995 RMK A01 T03470178  RH  037%=      5-min Rain = 0
KTH1 120035Z 14009G15KT 35/18 A2995 RMK A01 T03470179  RH  037%=      5-min Rain = 0
KTH1 120036Z 14010G15KT 35/18 A2995 RMK A01 T03470179  RH  037%=      5-min Rain = 0
KTH1 120037Z 14012KT 35/18 A2995 RMK A01 T03470179  RH  037%=      5-min Rain = 0
KTH1 120038Z 13010KT 35/18 A2995 RMK A01 T03470179  RH  037%=      5-min Rain = 0
KTH1 120039Z 14013KT 35/18 A2995 RMK A01 T03460179  RH  037%=      5-min Rain = 0
KTH1 120040Z 14011KT 35/18 A2995 RMK A01 T03460179  RH  037%=      5-min Rain = 0
KTH1 120041Z 13012KT 35/18 A2995 RMK A01 T03450179  RH  037%=      5-min Rain = 0
KTH1 120042Z 14012KT 35/18 A2995 RMK A01 T03450180  RH  038%=      5-min Rain = 0
KTH1 120043Z 13011KT 35/18 A2995 RMK A01 T03450180  RH  038%=      5-min Rain = 0
KTH1 120044Z 13011KT 34/18 A2995 RMK A01 T03440180  RH  038%=      5-min Rain = 0
KTH1 120045Z 13007KT 34/18 A2995 RMK A01 T03440180  RH  038%=      5-min Rain = 0
KTH1 120046Z 13011KT 34/18 A2995 RMK A01 T03430181  RH  038%=      5-min Rain = 0
KTH1 120047Z 13010KT 34/18 A2995 RMK A01 T03430181  RH  038%=      5-min Rain = 0
KTH1 120048Z 12010KT 34/18 A2995 RMK A01 T03420181  RH  038%=      5-min Rain = 0
KTH1 120049Z 12009KT 34/18 A2995 RMK A01 T03420181  RH  039%=      5-min Rain = 0
KTH1 120050Z 13010KT 34/18 A2995 RMK A01 T03410181  RH  039%=      5-min Rain = 0
KTH1 120051Z 13009KT 34/18 A2996 RMK A01 T03410182  RH  039%=      5-min Rain = 0
KTH1 120052Z 13009G14KT 34/18 A2996 RMK A01 T03410182  RH  039%=      5-min Rain = 0
KTH1 120053Z 13010KT 34/18 A2996 RMK A01 T03410183  RH  039%=      5-min Rain = 0
KTH1 120054Z 13011KT 34/18 A2996 RMK A01 T03400182  RH  039%=      5-min Rain = 0
KTH1 120055Z 13010KT 34/18 A2996 RMK A01 T03390181  RH  039%=      5-min Rain = 0
KTH1 120056Z 13010KT 34/18 A2996 RMK A01 T03390181  RH  039%=      5-min Rain = 0
KTH1 120057Z 12008KT 34/18 A2996 RMK A01 T03380181  RH  039%=      5-min Rain = 0
KTH1 120058Z 13010KT 34/18 A2996 RMK A01 T03380181  RH  039%=      5-min Rain = 0
KTH1 120059Z 13009KT 34/18 A2996 RMK A01 T03380181  RH  039%=      5-min Rain = 0
KTH1 120100Z 13008KT 34/18 A2996 RMK A01 T03380181  RH  040%=      5-min Rain = 0
KTH1 120101Z 13010G15KT 34/18 A2996 RMK A01 T03370181  RH  040%=      5-min Rain = 0
KTH1 120102Z 13009G16KT 34/18 A2996 RMK A01 T03370181  RH  040%=      5-min Rain = 0
KTH1 120103Z 13009KT 34/18 A2996 RMK A01 T03360181  RH  040%=      5-min Rain = 0
KTH1 120104Z 13008KT 34/18 A2996 RMK A01 T03360181  RH  040%=      5-min Rain = 0
KTH1 120105Z 13010G15KT 34/18 A2996 RMK A01 T03350181  RH  040%=      5-min Rain = 0
KTH1 120106Z 12011KT 34/18 A2996 RMK A01 T03350181  RH  040%=      5-min Rain = 0
KTH1 120107Z 13008KT 33/18 A2996 RMK A01 T03340181  RH  040%=      5-min Rain = 0
KTH1 120108Z 13011KT 33/18 A2996 RMK A01 T03340181  RH  040%=      5-min Rain = 0
KTH1 120109Z 13012KT 33/18 A2996 RMK A01 T03330181  RH  040%=      5-min Rain = 0
KTH1 120110Z 13010G15KT 33/18 A2996 RMK A01 T03330181  RH  041%=      5-min Rain = 0
KTH1 120111Z 13009KT 33/18 A2996 RMK A01 T03320181  RH  041%=      5-min Rain = 0
KTH1 120112Z 13010G16KT 33/18 A2996 RMK A01 T03320181  RH  041%=      5-min Rain = 0
KTH1 120113Z 13013KT 33/18 A2996 RMK A01 T03310181  RH  041%=      5-min Rain = 0
KTH1 120114Z 13012KT 33/18 A2996 RMK A01 T03310182  RH  041%=      5-min Rain = 0
KTH1 120115Z 14012KT 33/18 A2996 RMK A01 T03310183  RH  041%=      5-min Rain = 0
KTH1 120116Z 13009KT 33/18 A2996 RMK A01 T03300183  RH  042%=      5-min Rain = 0
KTH1 120117Z 13010KT 33/18 A2997 RMK A01 T03300183  RH  042%=      5-min Rain = 0
KTH1 120118Z 12010KT 33/18 A2997 RMK A01 T03290183  RH  042%=      5-min Rain = 0
KTH1 120119Z 14010KT 33/18 A2997 RMK A01 T03290183  RH  042%=      5-min Rain = 0
KTH1 120120Z 14012KT 33/18 A2997 RMK A01 T03280182  RH  042%=      5-min Rain = 0
KTH1 120121Z 13009KT 33/18 A2997 RMK A01 T03290183  RH  042%=      5-min Rain = 0
KTH1 120122Z 12008KT 33/18 A2997 RMK A01 T03280183  RH  042%=      5-min Rain = 0
KTH1 120123Z 13007G13KT 33/18 A2997 RMK A01 T03270182  RH  042%=      5-min Rain = 0
KTH1 120124Z 13007G12KT 33/18 A2997 RMK A01 T03270182  RH  042%=      5-min Rain = 0
KTH1 120125Z 13008KT 33/18 A2997 RMK A01 T03260183  RH  042%=      5-min Rain = 0
KTH1 120126Z 13009KT 33/18 A2997 RMK A01 T03260182  RH  043%=      5-min Rain = 0
KTH1 120127Z 13010KT 33/18 A2997 RMK A01 T03250183  RH  043%=      5-min Rain = 0
KTH1 120128Z 13010KT 33/18 A2997 RMK A01 T03250183  RH  043%=      5-min Rain = 0
KTH1 120129Z 13008KT 33/18 A2997 RMK A01 T03250183  RH  043%=      5-min Rain = 0
KTH1 120130Z 13009KT 33/18 A2997 RMK A01 T03250183  RH  043%=      5-min Rain = 0
KTH1 120131Z 13008KT 33/18 A2997 RMK A01 T03250183  RH  043%=      5-min Rain = 0
KTH1 120132Z 13007G13KT 32/18 A2997 RMK A01 T03240183  RH  043%=      5-min Rain = 0
KTH1 120133Z 13008KT 32/18 A2997 RMK A01 T03230182  RH  043%=      5-min Rain = 0
KTH1 120134Z 13007KT 32/18 A2997 RMK A01 T03230182  RH  043%=      5-min Rain = 0
KTH1 120135Z 13008KT 32/18 A2997 RMK A01 T03230182  RH  043%=      5-min Rain = 0
KTH1 120136Z 13011KT 32/18 A2997 RMK A01 T03230182  RH  043%=      5-min Rain = 0
KTH1 120137Z 13010KT 32/18 A2997 RMK A01 T03230182  RH  043%=      5-min Rain = 0
KTH1 120138Z 13008KT 32/18 A2997 RMK A01 T03220182  RH  043%=      5-min Rain = 0
KTH1 120139Z 13007KT 32/18 A2997 RMK A01 T03220181  RH  043%=      5-min Rain = 0
KTH1 120140Z 13009KT 32/18 A2997 RMK A01 T03220181  RH  043%=      5-min Rain = 0
KTH1 120141Z 13009KT 32/18 A2997 RMK A01 T03220181  RH  043%=      5-min Rain = 0
KTH1 120142Z 12007KT 32/18 A2997 RMK A01 T03210181  RH  043%=      5-min Rain = 0
KTH1 120143Z 12007KT 32/18 A2997 RMK A01 T03210181  RH  043%=      5-min Rain = 0
KTH1 120144Z 12005KT 32/18 A2997 RMK A01 T03210181  RH  043%=      5-min Rain = 0
KTH1 120145Z 13006KT 32/18 A2997 RMK A01 T03200181  RH  044%=      5-min Rain = 0
KTH1 120146Z 13006KT 32/18 A2998 RMK A01 T03200181  RH  044%=      5-min Rain = 0
KTH1 120147Z 13007KT 32/18 A2998 RMK A01 T03190181  RH  044%=      5-min Rain = 0
KTH1 120148Z 13010KT 32/18 A2998 RMK A01 T03190181  RH  044%=      5-min Rain = 0
KTH1 120149Z 13007G12KT 32/18 A2998 RMK A01 T03190181  RH  044%=      5-min Rain = 0
KTH1 120150Z 13007KT 32/18 A2998 RMK A01 T03190181  RH  044%=      5-min Rain = 0
KTH1 120151Z 13007KT 32/18 A2998 RMK A01 T03190181  RH  044%=      5-min Rain = 0
KTH1 120152Z 13005KT 32/18 A2998 RMK A01 T03180181  RH  044%=      5-min Rain = 0
KTH1 120153Z 13006KT 32/18 A2998 RMK A01 T03180181  RH  044%=      5-min Rain = 0
KTH1 120154Z 12007KT 32/18 A2998 RMK A01 T03170181  RH  044%=      5-min Rain = 0
KTH1 120155Z 13006KT 32/18 A2998 RMK A01 T03170181  RH  044%=      5-min Rain = 0
KTH1 120156Z 13005KT 32/18 A2998 RMK A01 T03160181  RH  045%=      5-min Rain = 0
KTH1 120157Z 13007KT 32/18 A2998 RMK A01 T03160181  RH  045%=      5-min Rain = 0
KTH1 120158Z 13008KT 32/18 A2998 RMK A01 T03150181  RH  045%=      5-min Rain = 0
KTH1 120159Z 13007KT 32/18 A2998 RMK A01 T03150181  RH  045%=      5-min Rain = 0
KTH1 120200Z 13006KT 32/18 A2998 RMK A01 T03150181  RH  045%=      5-min Rain = 0
KTH1 120201Z 13006KT 32/18 A2998 RMK A01 T03150181  RH  045%=      5-min Rain = 0
KTH1 120202Z 13007KT 32/18 A2998 RMK A01 T03150181  RH  045%=      5-min Rain = 0
KTH1 120203Z 13005KT 32/18 A2998 RMK A01 T03150181  RH  045%=      5-min Rain = 0
KTH1 120204Z 13006KT 31/18 A2998 RMK A01 T03140181  RH  045%=      5-min Rain = 0
KTH1 120205Z 12005KT 31/18 A2998 RMK A01 T03140181  RH  045%=      5-min Rain = 0
KTH1 120206Z 12006KT 31/18 A2998 RMK A01 T03140181  RH  045%=      5-min Rain = 0
KTH1 120207Z 12008KT 31/18 A2998 RMK A01 T03130181  RH  045%=      5-min Rain = 0
KTH1 120208Z 12007KT 31/18 A2998 RMK A01 T03140180  RH  045%=      5-min Rain = 0
KTH1 120209Z 13007KT 31/18 A2998 RMK A01 T03140181  RH  045%=      5-min Rain = 0
KTH1 120210Z 13007KT 31/18 A2998 RMK A01 T03140181  RH  045%=      5-min Rain = 0
KTH1 120211Z 13007KT 31/18 A2998 RMK A01 T03130181  RH  045%=      5-min Rain = 0
KTH1 120212Z 13006KT 31/18 A2998 RMK A01 T03130180  RH  045%=      5-min Rain = 0
KTH1 120213Z 13007KT 31/18 A2998 RMK A01 T03130181  RH  045%=      5-min Rain = 0
KTH1 120214Z 13007KT 31/18 A2998 RMK A01 T03120180  RH  046%=      5-min Rain = 0
KTH1 120215Z 13006KT 31/18 A2998 RMK A01 T03120181  RH  046%=      5-min Rain = 0
KTH1 120216Z 13007KT 31/18 A2999 RMK A01 T03120181  RH  046%=      5-min Rain = 0
KTH1 120217Z 13006KT 31/18 A2999 RMK A01 T03120181  RH  046%=      5-min Rain = 0
KTH1 120218Z 13005KT 31/18 A2999 RMK A01 T03110180  RH  046%=      5-min Rain = 0
KTH1 120219Z 13007KT 31/18 A2999 RMK A01 T03110181  RH  046%=      5-min Rain = 0
KTH1 120220Z 14006KT 31/18 A2999 RMK A01 T03110181  RH  046%=      5-min Rain = 0
KTH1 120221Z 13006KT 31/18 A2999 RMK A01 T03110181  RH  046%=      5-min Rain = 0
KTH1 120222Z 13007KT 31/18 A2999 RMK A01 T03110181  RH  046%=      5-min Rain = 0
KTH1 120223Z 13008KT 31/18 A2999 RMK A01 T03110181  RH  046%=      5-min Rain = 0
KTH1 120224Z 13008KT 31/18 A2999 RMK A01 T03110181  RH  046%=      5-min Rain = 0
KTH1 120225Z 13006KT 31/18 A2999 RMK A01 T03110181  RH  046%=      5-min Rain = 0
KTH1 120226Z 13007KT 31/18 A2999 RMK A01 T03110181  RH  046%=      5-min Rain = 0
KTH1 120227Z 13007KT 31/18 A2999 RMK A01 T03100181  RH  046%=      5-min Rain = 0
KTH1 120228Z 14008KT 31/18 A2999 RMK A01 T03100181  RH  046%=      5-min Rain = 0
KTH1 120229Z 13006KT 31/18 A2999 RMK A01 T03100181  RH  046%=      5-min Rain = 0
KTH1 120230Z 13006KT 31/18 A2999 RMK A01 T03090181  RH  046%=      5-min Rain = 0
KTH1 120231Z 14006KT 31/18 A2999 RMK A01 T03100181  RH  046%=      5-min Rain = 0
KTH1 120232Z 13005KT 31/18 A2999 RMK A01 T03090181  RH  046%=      5-min Rain = 0
KTH1 120233Z 13006KT 31/18 A2999 RMK A01 T03080181  RH  047%=      5-min Rain = 0
KTH1 120234Z 13006KT 31/18 A2999 RMK A01 T03080181  RH  047%=      5-min Rain = 0
KTH1 120235Z 12005KT 31/18 A2999 RMK A01 T03080181  RH  047%=      5-min Rain = 0
KTH1 120236Z 12004KT 31/18 A2999 RMK A01 T03070181  RH  047%=      5-min Rain = 0
KTH1 120237Z 13005KT 31/18 A2999 RMK A01 T03070181  RH  047%=      5-min Rain = 0
KTH1 120238Z 12005KT 31/18 A30 RMK A01 T03060181  RH  047%=      5-min Rain = 0
KTH1 120239Z 12005KT 31/18 A30 RMK A01 T03050181  RH  047%=      5-min Rain = 0
KTH1 120240Z 13005KT 31/18 A30 RMK A01 T03050181  RH  048%=      5-min Rain = 0
KTH1 120241Z 12005KT 31/18 A30 RMK A01 T03050182  RH  048%=      5-min Rain = 0
KTH1 120242Z 13004KT 30/18 A30 RMK A01 T03040181  RH  048%=      5-min Rain = 0
KTH1 120243Z 13005KT 30/18 A30 RMK A01 T03040182  RH  048%=      5-min Rain = 0
KTH1 120244Z 13005KT 30/18 A30 RMK A01 T03040182  RH  048%=      5-min Rain = 0
KTH1 120245Z 13005KT 30/18 A30 RMK A01 T03030182  RH  048%=      5-min Rain = 0
KTH1 120246Z 12005KT 30/18 A30 RMK A01 T03030182  RH  048%=      5-min Rain = 0
KTH1 120247Z 13005KT 30/18 A30 RMK A01 T03030182  RH  048%=      5-min Rain = 0
KTH1 120248Z 12005KT 30/18 A30 RMK A01 T03030182  RH  048%=      5-min Rain = 0
KTH1 120249Z 13004KT 30/18 A30 RMK A01 T03030182  RH  048%=      5-min Rain = 0
KTH1 120250Z 12005KT 30/18 A30 RMK A01 T03030182  RH  048%=      5-min Rain = 0
KTH1 120251Z 12004KT 30/18 A30 RMK A01 T03030182  RH  049%=      5-min Rain = 0
KTH1 120252Z 12005KT 30/18 A30 RMK A01 T03030182  RH  049%=      5-min Rain = 0
KTH1 120253Z 12005KT 30/18 A30 RMK A01 T03030183  RH  049%=      5-min Rain = 0
KTH1 120254Z 12005KT 30/18 A30 RMK A01 T03020182  RH  049%=      5-min Rain = 0
KTH1 120255Z 12006KT 30/18 A30 RMK A01 T03020182  RH  049%=      5-min Rain = 0
KTH1 120256Z 12004KT 30/18 A30 RMK A01 T03020182  RH  049%=      5-min Rain = 0
KTH1 120257Z 13004KT 30/18 A30 RMK A01 T03020183  RH  049%=      5-min Rain = 0
KTH1 120258Z 12005KT 30/18 A30 RMK A01 T03020183  RH  049%=      5-min Rain = 0
KTH1 120259Z 13005KT 30/18 A30 RMK A01 T03020183  RH  049%=      5-min Rain = 0
KTH1 120300Z 12005KT 30/18 A30 RMK A01 T03020183  RH  049%=      5-min Rain = 0
KTH1 120301Z 12005KT 30/18 A30 RMK A01 T03020183  RH  049%=      5-min Rain = 0
KTH1 120302Z 13005KT 30/18 A30 RMK A01 T03010183  RH  049%=      5-min Rain = 0
KTH1 120303Z 13005KT 30/18 A30 RMK A01 T03010183  RH  049%=      5-min Rain = 0
KTH1 120304Z 13005KT 30/18 A3001 RMK A01 T03010183  RH  049%=      5-min Rain = 0
KTH1 120305Z 12004KT 30/18 A3001 RMK A01 T03010183  RH  049%=      5-min Rain = 0
KTH1 120306Z 13004KT 30/18 A3001 RMK A01 T03010183  RH  049%=      5-min Rain = 0
KTH1 120307Z 12005KT 30/18 A3001 RMK A01 T03010183  RH  049%=      5-min Rain = 0
KTH1 120308Z 13005KT 30/18 A3001 RMK A01 T03010183  RH  049%=      5-min Rain = 0
KTH1 120309Z 12005KT 30/18 A3001 RMK A01 T03010183  RH  049%=      5-min Rain = 0
KTH1 120310Z 13005KT 30/18 A3001 RMK A01 T03010184  RH  049%=      5-min Rain = 0
KTH1 120311Z 13005KT 30/18 A3001 RMK A01 T03010184  RH  049%=      5-min Rain = 0
KTH1 120312Z 13005KT 30/18 A3001 RMK A01 T03010184  RH  050%=      5-min Rain = 0
KTH1 120313Z 13004KT 30/18 A3001 RMK A01 T03000184  RH  050%=      5-min Rain = 0
KTH1 120314Z 13004KT 30/18 A3001 RMK A01 T03000184  RH  050%=      5-min Rain = 0
KTH1 120315Z 13004KT 30/18 A3001 RMK A01 T03000184  RH  050%=      5-min Rain = 0
KTH1 120316Z 13004KT 30/18 A3001 RMK A01 T03000184  RH  050%=      5-min Rain = 0
KTH1 120317Z 13005KT 30/18 A3001 RMK A01 T03000184  RH  050%=      5-min Rain = 0
KTH1 120318Z 13005KT 30/18 A3001 RMK A01 T02990184  RH  050%=      5-min Rain = 0
KTH1 120319Z 13005KT 30/18 A3001 RMK A01 T02990184  RH  050%=      5-min Rain = 0
KTH1 120320Z 13004KT 30/18 A3001 RMK A01 T02990184  RH  050%=      5-min Rain = 0
KTH1 120321Z 13005KT 30/18 A3001 RMK A01 T02990184  RH  050%=      5-min Rain = 0
KTH1 120322Z 13005KT 30/18 A3001 RMK A01 T02990184  RH  050%=      5-min Rain = 0
KTH1 120323Z 13005KT 30/19 A3001 RMK A01 T02990185  RH  050%=      5-min Rain = 0
KTH1 120324Z 13005KT 30/19 A3001 RMK A01 T02990185  RH  050%=      5-min Rain = 0
KTH1 120325Z 12005KT 30/19 A3001 RMK A01 T02990185  RH  051%=      5-min Rain = 0
KTH1 120326Z 12005KT 30/19 A3001 RMK A01 T02990185  RH  051%=      5-min Rain = 0
KTH1 120327Z 12005KT 30/19 A3001 RMK A01 T02980185  RH  051%=      5-min Rain = 0
KTH1 120328Z 12005KT 30/19 A3001 RMK A01 T02980185  RH  051%=      5-min Rain = 0
KTH1 120329Z 13005KT 30/19 A3001 RMK A01 T02980185  RH  051%=      5-min Rain = 0
KTH1 120330Z 13005KT 30/19 A3001 RMK A01 T02980185  RH  051%=      5-min Rain = 0
KTH1 120331Z 13004KT 30/19 A3001 RMK A01 T02980185  RH  051%=      5-min Rain = 0
KTH1 120332Z 13004KT 30/19 A3001 RMK A01 T02980185  RH  051%=      5-min Rain = 0
KTH1 120333Z 13005KT 30/19 A3001 RMK A01 T02980185  RH  051%=      5-min Rain = 0
KTH1 120334Z 13004KT 30/19 A3001 RMK A01 T02980185  RH  051%=      5-min Rain = 0
KTH1 120335Z 13004KT 30/19 A3002 RMK A01 T02970185  RH  051%=      5-min Rain = 0
KTH1 120336Z 14004KT 30/19 A3002 RMK A01 T02970185  RH  051%=      5-min Rain = 0
KTH1 120337Z 13005KT 30/19 A3002 RMK A01 T02970185  RH  051%=      5-min Rain = 0
KTH1 120338Z 14005KT 30/19 A3002 RMK A01 T02970185  RH  051%=      5-min Rain = 0
KTH1 120339Z 14005KT 30/19 A3002 RMK A01 T02970185  RH  051%=      5-min Rain = 0
KTH1 120340Z 14004KT 30/19 A3002 RMK A01 T02970185  RH  051%=      5-min Rain = 0
KTH1 120341Z 14005KT 30/19 A3002 RMK A01 T02970185  RH  051%=      5-min Rain = 0
KTH1 120342Z 14004KT 30/19 A3002 RMK A01 T02970185  RH  051%=      5-min Rain = 0
KTH1 120343Z 15004KT 30/19 A3002 RMK A01 T02970185  RH  051%=      5-min Rain = 0
KTH1 120344Z 14005KT 30/19 A3002 RMK A01 T02970185  RH  051%=      5-min Rain = 0
KTH1 120345Z 14005KT 30/19 A3002 RMK A01 T02980185  RH  051%=      5-min Rain = 0
KTH1 120346Z 15005KT 30/19 A3002 RMK A01 T02980185  RH  051%=      5-min Rain = 0
KTH1 120347Z 14005KT 30/19 A3002 RMK A01 T02980185  RH  051%=      5-min Rain = 0
KTH1 120348Z 15004KT 30/19 A3002 RMK A01 T02980185  RH  051%=      5-min Rain = 0
KTH1 120349Z 15003KT 30/19 A3002 RMK A01 T02990185  RH  050%=      5-min Rain = 0
KTH1 120350Z 15005KT 30/19 A3002 RMK A01 T02990185  RH  050%=      5-min Rain = 0
KTH1 120351Z 14005KT 30/19 A3002 RMK A01 T02990185  RH  050%=      5-min Rain = 0
KTH1 120352Z 15004KT 30/19 A3002 RMK A01 T02990185  RH  050%=      5-min Rain = 0
KTH1 120353Z 14005KT 30/19 A3002 RMK A01 T03000185  RH  050%=      5-min Rain = 0
KTH1 120354Z 15006KT 30/19 A3002 RMK A01 T03000185  RH  050%=      5-min Rain = 0
KTH1 120355Z 15005KT 30/19 A3002 RMK A01 T03000185  RH  050%=      5-min Rain = 0
KTH1 120356Z 15004KT 30/19 A3002 RMK A01 T03000185  RH  050%=      5-min Rain = 0
KTH1 120357Z 15004KT 30/19 A3002 RMK A01 T03000185  RH  050%=      5-min Rain = 0
KTH1 120358Z 15004KT 30/19 A3002 RMK A01 T03000186  RH  050%=      5-min Rain = 0
KTH1 120359Z 15004KT 30/19 A3002 RMK A01 T03010186  RH  050%=      5-min Rain = 0
KTH1 120400Z 15004KT 30/19 A3002 RMK A01 T03000186  RH  050%=      5-min Rain = 0
KTH1 120401Z 15003KT 30/19 A3002 RMK A01 T03000185  RH  050%=      5-min Rain = 0
KTH1 120402Z 16003KT 30/19 A3002 RMK A01 T03000186  RH  050%=      5-min Rain = 0
KTH1 120403Z 16004KT 30/19 A3003 RMK A01 T03000186  RH  050%=      5-min Rain = 0
KTH1 120404Z 15004KT 30/19 A3002 RMK A01 T02990185  RH  050%=      5-min Rain = 0
KTH1 120405Z 16004KT 30/19 A3003 RMK A01 T02990185  RH  050%=      5-min Rain = 0
KTH1 120406Z 16003KT 30/19 A3003 RMK A01 T03000186  RH  050%=      5-min Rain = 0
KTH1 120407Z 17004KT 30/19 A3003 RMK A01 T02990186  RH  051%=      5-min Rain = 0
KTH1 120408Z 18003KT 30/19 A3003 RMK A01 T02990186  RH  051%=      5-min Rain = 0
KTH1 120409Z 19003KT 30/19 A3003 RMK A01 T02990186  RH  051%=      5-min Rain = 0
KTH1 120410Z 17003KT 30/19 A3003 RMK A01 T02990186  RH  051%=      5-min Rain = 0
KTH1 120411Z 19003KT 30/19 A3003 RMK A01 T02980185  RH  051%=      5-min Rain = 0
KTH1 120412Z 18003KT 30/19 A3003 RMK A01 T02980185  RH  051%=      5-min Rain = 0
KTH1 120413Z 18003KT 30/19 A3003 RMK A01 T02980185  RH  051%=      5-min Rain = 0
KTH1 120414Z 19003KT 30/19 A3003 RMK A01 T02980185  RH  051%=      5-min Rain = 0
KTH1 120415Z 19002KT 30/19 A3003 RMK A01 T02980186  RH  051%=      5-min Rain = 0
KTH1 120416Z 19002KT 30/19 A3003 RMK A01 T02970185  RH  051%=      5-min Rain = 0
KTH1 120417Z 19002KT 30/19 A3003 RMK A01 T02970185  RH  051%=      5-min Rain = 0
KTH1 120418Z 20003KT 30/19 A3003 RMK A01 T02970185  RH  051%=      5-min Rain = 0
KTH1 120419Z 19002KT 30/19 A3003 RMK A01 T02970185  RH  051%=      5-min Rain = 0
KTH1 120420Z 20002KT 30/19 A3003 RMK A01 T02970185  RH  051%=      5-min Rain = 0
KTH1 120421Z 20003KT 30/19 A3003 RMK A01 T02970185  RH  051%=      5-min Rain = 0
KTH1 120422Z 20003KT 30/19 A3003 RMK A01 T02970185  RH  051%=      5-min Rain = 0
KTH1 120423Z 21003KT 30/19 A3003 RMK A01 T02980185  RH  051%=      5-min Rain = 0
KTH1 120424Z 21003KT 30/19 A3003 RMK A01 T02980185  RH  051%=      5-min Rain = 0
KTH1 120425Z 20003KT 30/19 A3003 RMK A01 T02980186  RH  051%=      5-min Rain = 0
KTH1 120426Z 20003KT 30/19 A3003 RMK A01 T02980186  RH  051%=      5-min Rain = 0
KTH1 120427Z 22003KT 30/19 A3003 RMK A01 T02980185  RH  051%=      5-min Rain = 0
KTH1 120428Z 21004KT 30/19 A3003 RMK A01 T02980186  RH  051%=      5-min Rain = 0
KTH1 120429Z 22003KT 30/19 A3003 RMK A01 T02970185  RH  051%=      5-min Rain = 0
KTH1 120430Z 21003KT 30/19 A3003 RMK A01 T02970186  RH  051%=      5-min Rain = 0
KTH1 120431Z 21004KT 30/19 A3003 RMK A01 T02970186  RH  051%=      5-min Rain = 0
KTH1 120432Z 20004KT 30/19 A3003 RMK A01 T02970185  RH  051%=      5-min Rain = 0
KTH1 120433Z 20003KT 30/19 A3003 RMK A01 T02960185  RH  051%=      5-min Rain = 0
KTH1 120434Z 21003KT 30/19 A3003 RMK A01 T02960185  RH  051%=      5-min Rain = 0
KTH1 120435Z 21004KT 30/19 A3003 RMK A01 T02960185  RH  051%=      5-min Rain = 0
KTH1 120436Z 21006KT 30/19 A3003 RMK A01 T02960186  RH  051%=      5-min Rain = 0
KTH1 120437Z 22005KT 30/19 A3003 RMK A01 T02960186  RH  052%=      5-min Rain = 0
KTH1 120438Z 22006KT 30/19 A3003 RMK A01 T02960188  RH  052%=      5-min Rain = 0
KTH1 120439Z 21007KT 30/19 A3003 RMK A01 T02960191  RH  053%=      5-min Rain = 0
KTH1 120440Z 22006KT 30/19 A3003 RMK A01 T02950194  RH  054%=      5-min Rain = 0
KTH1 120441Z 21006KT 29/19 A3003 RMK A01 T02930194  RH  055%=      5-min Rain = 0
KTH1 120442Z 21005KT 29/19 A3003 RMK A01 T02920192  RH  055%=      5-min Rain = 0
KTH1 120443Z 21005KT 29/19 A3003 RMK A01 T02920192  RH  055%=      5-min Rain = 0
KTH1 120444Z 21006KT 29/19 A3003 RMK A01 T02920191  RH  054%=      5-min Rain = 0
KTH1 120445Z 21005KT 29/19 A3003 RMK A01 T02920191  RH  054%=      5-min Rain = 0
KTH1 120446Z 22006KT 29/19 A3003 RMK A01 T02920192  RH  055%=      5-min Rain = 0
KTH1 120447Z 20006KT 29/19 A3003 RMK A01 T02920193  RH  055%=      5-min Rain = 0
KTH1 120448Z 19007KT 29/19 A3003 RMK A01 T02910192  RH  055%=      5-min Rain = 0
KTH1 120449Z 20007KT 29/19 A3003 RMK A01 T02910192  RH  055%=      5-min Rain = 0
KTH1 120450Z 20007KT 29/19 A3003 RMK A01 T02910191  RH  055%=      5-min Rain = 0
KTH1 120451Z 19008KT 29/20 A3004 RMK A01 T02910195  RH  056%=      5-min Rain = 0
KTH1 120452Z 19007KT 29/20 A3004 RMK A01 T02900198  RH  058%=      5-min Rain = 0
KTH1 120453Z 19006KT 29/20 A3004 RMK A01 T02880199  RH  059%=      5-min Rain = 0
KTH1 120454Z 19006KT 29/20 A3004 RMK A01 T02860201  RH  060%=      5-min Rain = 0
KTH1 120455Z 19006KT 28/21 A3004 RMK A01 T02830205  RH  062%=      5-min Rain = 0
KTH1 120456Z 19007KT 28/20 A3004 RMK A01 T02800204  RH  063%=      5-min Rain = 0
KTH1 120457Z 19006KT 28/20 A3004 RMK A01 T02770204  RH  064%=      5-min Rain = 0
KTH1 120458Z 19006KT 28/20 A3004 RMK A01 T02750204  RH  065%=      5-min Rain = 0
KTH1 120459Z 19007KT 27/20 A3004 RMK A01 T02730204  RH  066%=      5-min Rain = 0
KTH1 120500Z 19007KT 27/20 A3004 RMK A01 T02720203  RH  066%=      5-min Rain = 0

Page generated in 0.0331 seconds.